<?xml version="1.0" encoding="UTF-8" standalone="no" ?>
<gpx xmlns="http://www.topografix.com/GPX/1/1" xmlns:xsi="http://www.w3.org/2001/XMLSchema-instance" xsi:schemaLocation="http://www.topografix.com/GPX/1/1 http://www.topografix.com/GPX/1/1/gpx.xsd" version="1.1" creator="VisuGPX - https://www.visugpx.com">
  <metadata>
    <name>Saint Fuscien - 11km</name>
    <desc><![CDATA[Walkmeter Marche 4 nov. 2012 09:03:50]]></desc>
  </metadata>
  <trk>
    <name><![CDATA[Chemins en Somme]]></name>
    <trkseg>
      <trkpt lat="49.83611" lon="2.31314">
        <ele>104.7</ele>
        <time>2012-11-04T08:03:50Z</time>
      </trkpt>
      <trkpt lat="49.8361" lon="2.31314">
        <ele>104.8</ele>
        <time>2012-11-04T08:03:51Z</time>
      </trkpt>
      <trkpt lat="49.83594" lon="2.31319">
        <ele>109</ele>
        <time>2012-11-04T08:04:03Z</time>
      </trkpt>
      <trkpt lat="49.83582" lon="2.31327">
        <ele>111.1</ele>
        <time>2012-11-04T08:04:14Z</time>
      </trkpt>
      <trkpt lat="49.8357" lon="2.31339">
        <ele>105.8</ele>
        <time>2012-11-04T08:04:23Z</time>
      </trkpt>
      <trkpt lat="49.8356" lon="2.31354">
        <ele>109.1</ele>
        <time>2012-11-04T08:04:33Z</time>
      </trkpt>
      <trkpt lat="49.8355" lon="2.31374">
        <ele>106.6</ele>
        <time>2012-11-04T08:04:44Z</time>
      </trkpt>
      <trkpt lat="49.83541" lon="2.3139">
        <ele>107.7</ele>
        <time>2012-11-04T08:04:55Z</time>
      </trkpt>
      <trkpt lat="49.83532" lon="2.31408">
        <ele>108.8</ele>
        <time>2012-11-04T08:05:06Z</time>
      </trkpt>
      <trkpt lat="49.8352" lon="2.31419">
        <ele>109.9</ele>
        <time>2012-11-04T08:05:17Z</time>
      </trkpt>
      <trkpt lat="49.8351" lon="2.31404">
        <ele>110.2</ele>
        <time>2012-11-04T08:05:27Z</time>
      </trkpt>
      <trkpt lat="49.83501" lon="2.31388">
        <ele>105.8</ele>
        <time>2012-11-04T08:05:38Z</time>
      </trkpt>
      <trkpt lat="49.8349" lon="2.31369">
        <ele>109.3</ele>
        <time>2012-11-04T08:05:50Z</time>
      </trkpt>
      <trkpt lat="49.8348" lon="2.31354">
        <ele>112.3</ele>
        <time>2012-11-04T08:06:02Z</time>
      </trkpt>
      <trkpt lat="49.8347" lon="2.31336">
        <ele>115.3</ele>
        <time>2012-11-04T08:06:12Z</time>
      </trkpt>
      <trkpt lat="49.83459" lon="2.31317">
        <ele>114.1</ele>
        <time>2012-11-04T08:06:22Z</time>
      </trkpt>
      <trkpt lat="49.8345" lon="2.31301">
        <ele>108.2</ele>
        <time>2012-11-04T08:06:34Z</time>
      </trkpt>
      <trkpt lat="49.83438" lon="2.31282">
        <ele>111.8</ele>
        <time>2012-11-04T08:06:46Z</time>
      </trkpt>
      <trkpt lat="49.83427" lon="2.31265">
        <ele>107.8</ele>
        <time>2012-11-04T08:07:01Z</time>
      </trkpt>
      <trkpt lat="49.83418" lon="2.31249">
        <ele>106</ele>
        <time>2012-11-04T08:07:10Z</time>
      </trkpt>
      <trkpt lat="49.83408" lon="2.31233">
        <ele>106.9</ele>
        <time>2012-11-04T08:07:23Z</time>
      </trkpt>
      <trkpt lat="49.83396" lon="2.31211">
        <ele>105.2</ele>
        <time>2012-11-04T08:07:32Z</time>
      </trkpt>
      <trkpt lat="49.83386" lon="2.31193">
        <ele>104.4</ele>
        <time>2012-11-04T08:07:45Z</time>
      </trkpt>
      <trkpt lat="49.83374" lon="2.31181">
        <ele>105.6</ele>
        <time>2012-11-04T08:07:59Z</time>
      </trkpt>
      <trkpt lat="49.83361" lon="2.31178">
        <ele>104.7</ele>
        <time>2012-11-04T08:08:13Z</time>
      </trkpt>
      <trkpt lat="49.83348" lon="2.31171">
        <ele>112.5</ele>
        <time>2012-11-04T08:08:32Z</time>
      </trkpt>
      <trkpt lat="49.83335" lon="2.31177">
        <ele>114.6</ele>
        <time>2012-11-04T08:08:42Z</time>
      </trkpt>
      <trkpt lat="49.83323" lon="2.31168">
        <ele>110.6</ele>
        <time>2012-11-04T08:08:51Z</time>
      </trkpt>
      <trkpt lat="49.83309" lon="2.31159">
        <ele>101.9</ele>
        <time>2012-11-04T08:09:00Z</time>
      </trkpt>
      <trkpt lat="49.83296" lon="2.31148">
        <ele>102.6</ele>
        <time>2012-11-04T08:09:10Z</time>
      </trkpt>
      <trkpt lat="49.83283" lon="2.31135">
        <ele>100.3</ele>
        <time>2012-11-04T08:09:22Z</time>
      </trkpt>
      <trkpt lat="49.83275" lon="2.31117">
        <ele>106.6</ele>
        <time>2012-11-04T08:09:36Z</time>
      </trkpt>
      <trkpt lat="49.83264" lon="2.31105">
        <ele>109.9</ele>
        <time>2012-11-04T08:09:45Z</time>
      </trkpt>
      <trkpt lat="49.83253" lon="2.31091">
        <ele>110.2</ele>
        <time>2012-11-04T08:09:56Z</time>
      </trkpt>
      <trkpt lat="49.83241" lon="2.3108">
        <ele>106.9</ele>
        <time>2012-11-04T08:10:07Z</time>
      </trkpt>
      <trkpt lat="49.8323" lon="2.31067">
        <ele>105.6</ele>
        <time>2012-11-04T08:10:18Z</time>
      </trkpt>
      <trkpt lat="49.83219" lon="2.31052">
        <ele>107.9</ele>
        <time>2012-11-04T08:10:32Z</time>
      </trkpt>
      <trkpt lat="49.83207" lon="2.31039">
        <ele>109.5</ele>
        <time>2012-11-04T08:10:43Z</time>
      </trkpt>
      <trkpt lat="49.83196" lon="2.31025">
        <ele>111.4</ele>
        <time>2012-11-04T08:10:56Z</time>
      </trkpt>
      <trkpt lat="49.83185" lon="2.31011">
        <ele>106.3</ele>
        <time>2012-11-04T08:11:08Z</time>
      </trkpt>
      <trkpt lat="49.83173" lon="2.31">
        <ele>101.3</ele>
        <time>2012-11-04T08:11:19Z</time>
      </trkpt>
      <trkpt lat="49.8316" lon="2.30987">
        <ele>102</ele>
        <time>2012-11-04T08:11:30Z</time>
      </trkpt>
      <trkpt lat="49.83149" lon="2.30974">
        <ele>101.6</ele>
        <time>2012-11-04T08:11:42Z</time>
      </trkpt>
      <trkpt lat="49.83139" lon="2.30957">
        <ele>98.5</ele>
        <time>2012-11-04T08:11:53Z</time>
      </trkpt>
      <trkpt lat="49.83127" lon="2.30943">
        <ele>101.1</ele>
        <time>2012-11-04T08:12:05Z</time>
      </trkpt>
      <trkpt lat="49.83115" lon="2.30931">
        <ele>101</ele>
        <time>2012-11-04T08:12:17Z</time>
      </trkpt>
      <trkpt lat="49.83104" lon="2.30916">
        <ele>100.5</ele>
        <time>2012-11-04T08:12:28Z</time>
      </trkpt>
      <trkpt lat="49.83093" lon="2.30902">
        <ele>98.3</ele>
        <time>2012-11-04T08:12:40Z</time>
      </trkpt>
      <trkpt lat="49.83082" lon="2.30889">
        <ele>100.5</ele>
        <time>2012-11-04T08:12:52Z</time>
      </trkpt>
      <trkpt lat="49.83067" lon="2.30881">
        <ele>103.8</ele>
        <time>2012-11-04T08:13:03Z</time>
      </trkpt>
      <trkpt lat="49.83053" lon="2.30878">
        <ele>102.6</ele>
        <time>2012-11-04T08:13:18Z</time>
      </trkpt>
      <trkpt lat="49.83038" lon="2.30877">
        <ele>101</ele>
        <time>2012-11-04T08:13:29Z</time>
      </trkpt>
      <trkpt lat="49.83026" lon="2.3087">
        <ele>96.6</ele>
        <time>2012-11-04T08:13:43Z</time>
      </trkpt>
      <trkpt lat="49.83012" lon="2.30873">
        <ele>92.5</ele>
        <time>2012-11-04T08:13:53Z</time>
      </trkpt>
      <trkpt lat="49.82998" lon="2.30868">
        <ele>88.8</ele>
        <time>2012-11-04T08:14:05Z</time>
      </trkpt>
      <trkpt lat="49.82983" lon="2.30859">
        <ele>84</ele>
        <time>2012-11-04T08:14:15Z</time>
      </trkpt>
      <trkpt lat="49.82969" lon="2.30859">
        <ele>82.4</ele>
        <time>2012-11-04T08:14:22Z</time>
      </trkpt>
      <trkpt lat="49.82956" lon="2.30863">
        <ele>84.6</ele>
        <time>2012-11-04T08:14:31Z</time>
      </trkpt>
      <trkpt lat="49.82942" lon="2.30869">
        <ele>85.8</ele>
        <time>2012-11-04T08:14:40Z</time>
      </trkpt>
      <trkpt lat="49.82928" lon="2.30875">
        <ele>87.1</ele>
        <time>2012-11-04T08:14:49Z</time>
      </trkpt>
      <trkpt lat="49.82913" lon="2.30879">
        <ele>82.9</ele>
        <time>2012-11-04T08:14:59Z</time>
      </trkpt>
      <trkpt lat="49.829" lon="2.30881">
        <ele>76.3</ele>
        <time>2012-11-04T08:15:14Z</time>
      </trkpt>
      <trkpt lat="49.82886" lon="2.30884">
        <ele>76.9</ele>
        <time>2012-11-04T08:15:25Z</time>
      </trkpt>
      <trkpt lat="49.82869" lon="2.30889">
        <ele>81.5</ele>
        <time>2012-11-04T08:15:37Z</time>
      </trkpt>
      <trkpt lat="49.82856" lon="2.30886">
        <ele>85.7</ele>
        <time>2012-11-04T08:15:49Z</time>
      </trkpt>
      <trkpt lat="49.8285" lon="2.30866">
        <ele>77.3</ele>
        <time>2012-11-04T08:16:02Z</time>
      </trkpt>
      <trkpt lat="49.82844" lon="2.30845">
        <ele>72.2</ele>
        <time>2012-11-04T08:16:20Z</time>
      </trkpt>
      <trkpt lat="49.8284" lon="2.30824">
        <ele>72.4</ele>
        <time>2012-11-04T08:16:30Z</time>
      </trkpt>
      <trkpt lat="49.82837" lon="2.30802">
        <ele>75.2</ele>
        <time>2012-11-04T08:16:41Z</time>
      </trkpt>
      <trkpt lat="49.82836" lon="2.30779">
        <ele>78.5</ele>
        <time>2012-11-04T08:16:55Z</time>
      </trkpt>
      <trkpt lat="49.82834" lon="2.30755">
        <ele>74.4</ele>
        <time>2012-11-04T08:17:06Z</time>
      </trkpt>
      <trkpt lat="49.82832" lon="2.30731">
        <ele>79.8</ele>
        <time>2012-11-04T08:17:18Z</time>
      </trkpt>
      <trkpt lat="49.8283" lon="2.3071">
        <ele>78.3</ele>
        <time>2012-11-04T08:17:34Z</time>
      </trkpt>
      <trkpt lat="49.82825" lon="2.30689">
        <ele>78</ele>
        <time>2012-11-04T08:17:43Z</time>
      </trkpt>
      <trkpt lat="49.82821" lon="2.30669">
        <ele>76.4</ele>
        <time>2012-11-04T08:17:52Z</time>
      </trkpt>
      <trkpt lat="49.82815" lon="2.30649">
        <ele>72.8</ele>
        <time>2012-11-04T08:18:05Z</time>
      </trkpt>
      <trkpt lat="49.82809" lon="2.30629">
        <ele>69.4</ele>
        <time>2012-11-04T08:18:15Z</time>
      </trkpt>
      <trkpt lat="49.82805" lon="2.30607">
        <ele>64.6</ele>
        <time>2012-11-04T08:18:25Z</time>
      </trkpt>
      <trkpt lat="49.82796" lon="2.30589">
        <ele>66.2</ele>
        <time>2012-11-04T08:18:35Z</time>
      </trkpt>
      <trkpt lat="49.82785" lon="2.30575">
        <ele>67.9</ele>
        <time>2012-11-04T08:18:45Z</time>
      </trkpt>
      <trkpt lat="49.82776" lon="2.3056">
        <ele>70.9</ele>
        <time>2012-11-04T08:18:54Z</time>
      </trkpt>
      <trkpt lat="49.82767" lon="2.30543">
        <ele>67.8</ele>
        <time>2012-11-04T08:19:06Z</time>
      </trkpt>
      <trkpt lat="49.82757" lon="2.30525">
        <ele>66.9</ele>
        <time>2012-11-04T08:19:19Z</time>
      </trkpt>
      <trkpt lat="49.82749" lon="2.30507">
        <ele>73.3</ele>
        <time>2012-11-04T08:19:31Z</time>
      </trkpt>
      <trkpt lat="49.82735" lon="2.30491">
        <ele>69</ele>
        <time>2012-11-04T08:19:41Z</time>
      </trkpt>
      <trkpt lat="49.82725" lon="2.30475">
        <ele>63.8</ele>
        <time>2012-11-04T08:19:55Z</time>
      </trkpt>
      <trkpt lat="49.82732" lon="2.30457">
        <ele>65</ele>
        <time>2012-11-04T08:20:06Z</time>
      </trkpt>
      <trkpt lat="49.82743" lon="2.30442">
        <ele>65.7</ele>
        <time>2012-11-04T08:20:17Z</time>
      </trkpt>
      <trkpt lat="49.82751" lon="2.30425">
        <ele>65.2</ele>
        <time>2012-11-04T08:20:28Z</time>
      </trkpt>
      <trkpt lat="49.82759" lon="2.30407">
        <ele>67.6</ele>
        <time>2012-11-04T08:20:38Z</time>
      </trkpt>
      <trkpt lat="49.82764" lon="2.30385">
        <ele>68.1</ele>
        <time>2012-11-04T08:20:49Z</time>
      </trkpt>
      <trkpt lat="49.8277" lon="2.30365">
        <ele>67.1</ele>
        <time>2012-11-04T08:21:00Z</time>
      </trkpt>
      <trkpt lat="49.82773" lon="2.30343">
        <ele>66.2</ele>
        <time>2012-11-04T08:21:10Z</time>
      </trkpt>
      <trkpt lat="49.82778" lon="2.30302">
        <ele>68.4</ele>
        <time>2012-11-04T08:21:25Z</time>
      </trkpt>
      <trkpt lat="49.82778" lon="2.30302">
        <ele>68.4</ele>
        <time>2012-11-04T08:22:36Z</time>
      </trkpt>
      <trkpt lat="49.8278" lon="2.30284">
        <ele>67.5</ele>
        <time>2012-11-04T08:22:38Z</time>
      </trkpt>
      <trkpt lat="49.82783" lon="2.3026">
        <ele>69.4</ele>
        <time>2012-11-04T08:22:47Z</time>
      </trkpt>
      <trkpt lat="49.82784" lon="2.30238">
        <ele>66.7</ele>
        <time>2012-11-04T08:23:01Z</time>
      </trkpt>
      <trkpt lat="49.82784" lon="2.30215">
        <ele>67.1</ele>
        <time>2012-11-04T08:23:12Z</time>
      </trkpt>
      <trkpt lat="49.82787" lon="2.30194">
        <ele>66.3</ele>
        <time>2012-11-04T08:23:21Z</time>
      </trkpt>
      <trkpt lat="49.8279" lon="2.30172">
        <ele>60.8</ele>
        <time>2012-11-04T08:23:32Z</time>
      </trkpt>
      <trkpt lat="49.82791" lon="2.30151">
        <ele>63</ele>
        <time>2012-11-04T08:23:43Z</time>
      </trkpt>
      <trkpt lat="49.82792" lon="2.30127">
        <ele>64.1</ele>
        <time>2012-11-04T08:23:56Z</time>
      </trkpt>
      <trkpt lat="49.82795" lon="2.30106">
        <ele>64.2</ele>
        <time>2012-11-04T08:24:07Z</time>
      </trkpt>
      <trkpt lat="49.828" lon="2.30085">
        <ele>65.3</ele>
        <time>2012-11-04T08:24:17Z</time>
      </trkpt>
      <trkpt lat="49.82805" lon="2.30065">
        <ele>65.7</ele>
        <time>2012-11-04T08:24:28Z</time>
      </trkpt>
      <trkpt lat="49.82808" lon="2.30044">
        <ele>67.2</ele>
        <time>2012-11-04T08:24:39Z</time>
      </trkpt>
      <trkpt lat="49.82812" lon="2.30023">
        <ele>65.3</ele>
        <time>2012-11-04T08:24:50Z</time>
      </trkpt>
      <trkpt lat="49.82817" lon="2.30002">
        <ele>62.2</ele>
        <time>2012-11-04T08:25:01Z</time>
      </trkpt>
      <trkpt lat="49.82822" lon="2.29981">
        <ele>62.3</ele>
        <time>2012-11-04T08:25:11Z</time>
      </trkpt>
      <trkpt lat="49.82825" lon="2.2996">
        <ele>66</ele>
        <time>2012-11-04T08:25:20Z</time>
      </trkpt>
      <trkpt lat="49.82831" lon="2.29941">
        <ele>64.1</ele>
        <time>2012-11-04T08:25:31Z</time>
      </trkpt>
      <trkpt lat="49.82839" lon="2.29922">
        <ele>64.7</ele>
        <time>2012-11-04T08:25:42Z</time>
      </trkpt>
      <trkpt lat="49.82847" lon="2.29905">
        <ele>67.1</ele>
        <time>2012-11-04T08:25:52Z</time>
      </trkpt>
      <trkpt lat="49.82854" lon="2.29886">
        <ele>62.9</ele>
        <time>2012-11-04T08:26:02Z</time>
      </trkpt>
      <trkpt lat="49.82863" lon="2.29869">
        <ele>60.1</ele>
        <time>2012-11-04T08:26:14Z</time>
      </trkpt>
      <trkpt lat="49.82873" lon="2.29853">
        <ele>60.2</ele>
        <time>2012-11-04T08:26:23Z</time>
      </trkpt>
      <trkpt lat="49.82885" lon="2.29839">
        <ele>62.4</ele>
        <time>2012-11-04T08:26:36Z</time>
      </trkpt>
      <trkpt lat="49.82895" lon="2.29826">
        <ele>59.7</ele>
        <time>2012-11-04T08:26:44Z</time>
      </trkpt>
      <trkpt lat="49.82909" lon="2.29819">
        <ele>60</ele>
        <time>2012-11-04T08:26:56Z</time>
      </trkpt>
      <trkpt lat="49.8292" lon="2.29805">
        <ele>62.9</ele>
        <time>2012-11-04T08:27:08Z</time>
      </trkpt>
      <trkpt lat="49.8293" lon="2.29791">
        <ele>64.9</ele>
        <time>2012-11-04T08:27:16Z</time>
      </trkpt>
      <trkpt lat="49.82944" lon="2.29783">
        <ele>65.5</ele>
        <time>2012-11-04T08:27:25Z</time>
      </trkpt>
      <trkpt lat="49.82957" lon="2.29773">
        <ele>61.9</ele>
        <time>2012-11-04T08:27:38Z</time>
      </trkpt>
      <trkpt lat="49.8297" lon="2.29765">
        <ele>59.9</ele>
        <time>2012-11-04T08:27:50Z</time>
      </trkpt>
      <trkpt lat="49.82983" lon="2.29755">
        <ele>58.3</ele>
        <time>2012-11-04T08:28:00Z</time>
      </trkpt>
      <trkpt lat="49.82995" lon="2.29743">
        <ele>59.4</ele>
        <time>2012-11-04T08:28:10Z</time>
      </trkpt>
      <trkpt lat="49.83009" lon="2.29738">
        <ele>59.2</ele>
        <time>2012-11-04T08:28:22Z</time>
      </trkpt>
      <trkpt lat="49.83023" lon="2.29735">
        <ele>60.3</ele>
        <time>2012-11-04T08:28:33Z</time>
      </trkpt>
      <trkpt lat="49.83037" lon="2.29729">
        <ele>54.6</ele>
        <time>2012-11-04T08:28:44Z</time>
      </trkpt>
      <trkpt lat="49.83053" lon="2.29722">
        <ele>57.1</ele>
        <time>2012-11-04T08:28:54Z</time>
      </trkpt>
      <trkpt lat="49.83068" lon="2.2971">
        <ele>58.5</ele>
        <time>2012-11-04T08:29:09Z</time>
      </trkpt>
      <trkpt lat="49.83081" lon="2.29701">
        <ele>59.7</ele>
        <time>2012-11-04T08:29:21Z</time>
      </trkpt>
      <trkpt lat="49.83095" lon="2.29697">
        <ele>61</ele>
        <time>2012-11-04T08:29:30Z</time>
      </trkpt>
      <trkpt lat="49.83108" lon="2.2969">
        <ele>62.6</ele>
        <time>2012-11-04T08:29:39Z</time>
      </trkpt>
      <trkpt lat="49.83104" lon="2.29669">
        <ele>64.8</ele>
        <time>2012-11-04T08:29:51Z</time>
      </trkpt>
      <trkpt lat="49.83096" lon="2.29651">
        <ele>66.8</ele>
        <time>2012-11-04T08:30:02Z</time>
      </trkpt>
      <trkpt lat="49.83087" lon="2.29635">
        <ele>62.4</ele>
        <time>2012-11-04T08:30:13Z</time>
      </trkpt>
      <trkpt lat="49.83078" lon="2.29616">
        <ele>58.8</ele>
        <time>2012-11-04T08:30:23Z</time>
      </trkpt>
      <trkpt lat="49.83068" lon="2.29599">
        <ele>63.8</ele>
        <time>2012-11-04T08:30:36Z</time>
      </trkpt>
      <trkpt lat="49.8306" lon="2.29579">
        <ele>71.8</ele>
        <time>2012-11-04T08:30:52Z</time>
      </trkpt>
      <trkpt lat="49.83055" lon="2.29558">
        <ele>71.9</ele>
        <time>2012-11-04T08:31:07Z</time>
      </trkpt>
      <trkpt lat="49.83048" lon="2.29532">
        <ele>68</ele>
        <time>2012-11-04T08:31:23Z</time>
      </trkpt>
      <trkpt lat="49.83044" lon="2.29512">
        <ele>63.1</ele>
        <time>2012-11-04T08:31:30Z</time>
      </trkpt>
      <trkpt lat="49.83042" lon="2.29498">
        <ele>69.1</ele>
        <time>2012-11-04T08:31:50Z</time>
      </trkpt>
      <trkpt lat="49.83037" lon="2.29484">
        <ele>73.2</ele>
        <time>2012-11-04T08:31:58Z</time>
      </trkpt>
      <trkpt lat="49.83034" lon="2.29461">
        <ele>65.9</ele>
        <time>2012-11-04T08:32:07Z</time>
      </trkpt>
      <trkpt lat="49.83026" lon="2.2944">
        <ele>63.9</ele>
        <time>2012-11-04T08:32:11Z</time>
      </trkpt>
      <trkpt lat="49.83027" lon="2.29415">
        <ele>64.4</ele>
        <time>2012-11-04T08:32:20Z</time>
      </trkpt>
      <trkpt lat="49.83024" lon="2.29394">
        <ele>66.6</ele>
        <time>2012-11-04T08:32:29Z</time>
      </trkpt>
      <trkpt lat="49.8302" lon="2.29374">
        <ele>67.6</ele>
        <time>2012-11-04T08:32:39Z</time>
      </trkpt>
      <trkpt lat="49.83014" lon="2.29353">
        <ele>67.5</ele>
        <time>2012-11-04T08:32:50Z</time>
      </trkpt>
      <trkpt lat="49.83008" lon="2.29331">
        <ele>66.3</ele>
        <time>2012-11-04T08:33:01Z</time>
      </trkpt>
      <trkpt lat="49.83" lon="2.29314">
        <ele>69.1</ele>
        <time>2012-11-04T08:33:11Z</time>
      </trkpt>
      <trkpt lat="49.82995" lon="2.29307">
        <ele>75.4</ele>
        <time>2012-11-04T08:33:19Z</time>
      </trkpt>
      <trkpt lat="49.82989" lon="2.29303">
        <ele>81.2</ele>
        <time>2012-11-04T08:33:32Z</time>
      </trkpt>
      <trkpt lat="49.82976" lon="2.2929">
        <ele>86</ele>
        <time>2012-11-04T08:33:41Z</time>
      </trkpt>
      <trkpt lat="49.82964" lon="2.29274">
        <ele>90.8</ele>
        <time>2012-11-04T08:33:56Z</time>
      </trkpt>
      <trkpt lat="49.82952" lon="2.29262">
        <ele>95</ele>
        <time>2012-11-04T08:34:09Z</time>
      </trkpt>
      <trkpt lat="49.8294" lon="2.29247">
        <ele>91.6</ele>
        <time>2012-11-04T08:34:25Z</time>
      </trkpt>
      <trkpt lat="49.8293" lon="2.2923">
        <ele>90.2</ele>
        <time>2012-11-04T08:34:32Z</time>
      </trkpt>
      <trkpt lat="49.82918" lon="2.29218">
        <ele>93.1</ele>
        <time>2012-11-04T08:34:42Z</time>
      </trkpt>
      <trkpt lat="49.82906" lon="2.29206">
        <ele>86.4</ele>
        <time>2012-11-04T08:34:55Z</time>
      </trkpt>
      <trkpt lat="49.82894" lon="2.29194">
        <ele>78.2</ele>
        <time>2012-11-04T08:35:04Z</time>
      </trkpt>
      <trkpt lat="49.82881" lon="2.29184">
        <ele>76</ele>
        <time>2012-11-04T08:35:15Z</time>
      </trkpt>
      <trkpt lat="49.82868" lon="2.29178">
        <ele>80</ele>
        <time>2012-11-04T08:35:25Z</time>
      </trkpt>
      <trkpt lat="49.82854" lon="2.29164">
        <ele>81</ele>
        <time>2012-11-04T08:35:39Z</time>
      </trkpt>
      <trkpt lat="49.82841" lon="2.29154">
        <ele>82.2</ele>
        <time>2012-11-04T08:35:51Z</time>
      </trkpt>
      <trkpt lat="49.82829" lon="2.29141">
        <ele>83.1</ele>
        <time>2012-11-04T08:36:00Z</time>
      </trkpt>
      <trkpt lat="49.82822" lon="2.29123">
        <ele>83.5</ele>
        <time>2012-11-04T08:36:09Z</time>
      </trkpt>
      <trkpt lat="49.82813" lon="2.29106">
        <ele>79.2</ele>
        <time>2012-11-04T08:36:18Z</time>
      </trkpt>
      <trkpt lat="49.82805" lon="2.29087">
        <ele>87.6</ele>
        <time>2012-11-04T08:36:30Z</time>
      </trkpt>
      <trkpt lat="49.82798" lon="2.29069">
        <ele>80.7</ele>
        <time>2012-11-04T08:36:41Z</time>
      </trkpt>
      <trkpt lat="49.82792" lon="2.29048">
        <ele>81.5</ele>
        <time>2012-11-04T08:36:52Z</time>
      </trkpt>
      <trkpt lat="49.82788" lon="2.29025">
        <ele>82.1</ele>
        <time>2012-11-04T08:37:03Z</time>
      </trkpt>
      <trkpt lat="49.8278" lon="2.29008">
        <ele>78.6</ele>
        <time>2012-11-04T08:37:11Z</time>
      </trkpt>
      <trkpt lat="49.82772" lon="2.2899">
        <ele>87.8</ele>
        <time>2012-11-04T08:37:24Z</time>
      </trkpt>
      <trkpt lat="49.82763" lon="2.28974">
        <ele>88.9</ele>
        <time>2012-11-04T08:37:33Z</time>
      </trkpt>
      <trkpt lat="49.82755" lon="2.28954">
        <ele>90</ele>
        <time>2012-11-04T08:37:41Z</time>
      </trkpt>
      <trkpt lat="49.82749" lon="2.28934">
        <ele>90.9</ele>
        <time>2012-11-04T08:37:48Z</time>
      </trkpt>
      <trkpt lat="49.82742" lon="2.28915">
        <ele>91.9</ele>
        <time>2012-11-04T08:37:56Z</time>
      </trkpt>
      <trkpt lat="49.82736" lon="2.28896">
        <ele>92.3</ele>
        <time>2012-11-04T08:38:05Z</time>
      </trkpt>
      <trkpt lat="49.8273" lon="2.28874">
        <ele>92.3</ele>
        <time>2012-11-04T08:38:16Z</time>
      </trkpt>
      <trkpt lat="49.82721" lon="2.2885">
        <ele>90.4</ele>
        <time>2012-11-04T08:38:25Z</time>
      </trkpt>
      <trkpt lat="49.82714" lon="2.28832">
        <ele>88.8</ele>
        <time>2012-11-04T08:38:37Z</time>
      </trkpt>
      <trkpt lat="49.82708" lon="2.28813">
        <ele>92.5</ele>
        <time>2012-11-04T08:38:47Z</time>
      </trkpt>
      <trkpt lat="49.82702" lon="2.28787">
        <ele>91.7</ele>
        <time>2012-11-04T08:38:57Z</time>
      </trkpt>
      <trkpt lat="49.82695" lon="2.28766">
        <ele>92.5</ele>
        <time>2012-11-04T08:39:10Z</time>
      </trkpt>
      <trkpt lat="49.82687" lon="2.28746">
        <ele>91.9</ele>
        <time>2012-11-04T08:39:20Z</time>
      </trkpt>
      <trkpt lat="49.82678" lon="2.28727">
        <ele>95.5</ele>
        <time>2012-11-04T08:39:32Z</time>
      </trkpt>
      <trkpt lat="49.8267" lon="2.2871">
        <ele>95.4</ele>
        <time>2012-11-04T08:39:40Z</time>
      </trkpt>
      <trkpt lat="49.82663" lon="2.2869">
        <ele>95.4</ele>
        <time>2012-11-04T08:39:51Z</time>
      </trkpt>
      <trkpt lat="49.82656" lon="2.2867">
        <ele>95.9</ele>
        <time>2012-11-04T08:40:01Z</time>
      </trkpt>
      <trkpt lat="49.82649" lon="2.2865">
        <ele>94.8</ele>
        <time>2012-11-04T08:40:11Z</time>
      </trkpt>
      <trkpt lat="49.82643" lon="2.28631">
        <ele>93.3</ele>
        <time>2012-11-04T08:40:21Z</time>
      </trkpt>
      <trkpt lat="49.82638" lon="2.28611">
        <ele>96.4</ele>
        <time>2012-11-04T08:40:31Z</time>
      </trkpt>
      <trkpt lat="49.82631" lon="2.28591">
        <ele>99.6</ele>
        <time>2012-11-04T08:40:42Z</time>
      </trkpt>
      <trkpt lat="49.82626" lon="2.28571">
        <ele>91.6</ele>
        <time>2012-11-04T08:40:53Z</time>
      </trkpt>
      <trkpt lat="49.82622" lon="2.2855">
        <ele>92.3</ele>
        <time>2012-11-04T08:41:03Z</time>
      </trkpt>
      <trkpt lat="49.82613" lon="2.28534">
        <ele>90.9</ele>
        <time>2012-11-04T08:41:12Z</time>
      </trkpt>
      <trkpt lat="49.82601" lon="2.28522">
        <ele>90.8</ele>
        <time>2012-11-04T08:41:21Z</time>
      </trkpt>
      <trkpt lat="49.8259" lon="2.2851">
        <ele>87.8</ele>
        <time>2012-11-04T08:41:31Z</time>
      </trkpt>
      <trkpt lat="49.82576" lon="2.28497">
        <ele>81</ele>
        <time>2012-11-04T08:41:40Z</time>
      </trkpt>
      <trkpt lat="49.82566" lon="2.28484">
        <ele>81.4</ele>
        <time>2012-11-04T08:41:47Z</time>
      </trkpt>
      <trkpt lat="49.82558" lon="2.28463">
        <ele>85.9</ele>
        <time>2012-11-04T08:42:01Z</time>
      </trkpt>
      <trkpt lat="49.82548" lon="2.28447">
        <ele>89.7</ele>
        <time>2012-11-04T08:42:09Z</time>
      </trkpt>
      <trkpt lat="49.82541" lon="2.28428">
        <ele>94.2</ele>
        <time>2012-11-04T08:42:19Z</time>
      </trkpt>
      <trkpt lat="49.82536" lon="2.28405">
        <ele>83.9</ele>
        <time>2012-11-04T08:42:35Z</time>
      </trkpt>
      <trkpt lat="49.82524" lon="2.28395">
        <ele>83</ele>
        <time>2012-11-04T08:42:43Z</time>
      </trkpt>
      <trkpt lat="49.82513" lon="2.28381">
        <ele>81.4</ele>
        <time>2012-11-04T08:42:58Z</time>
      </trkpt>
      <trkpt lat="49.82501" lon="2.2837">
        <ele>86.4</ele>
        <time>2012-11-04T08:43:07Z</time>
      </trkpt>
      <trkpt lat="49.82488" lon="2.2836">
        <ele>88.3</ele>
        <time>2012-11-04T08:43:17Z</time>
      </trkpt>
      <trkpt lat="49.82473" lon="2.28354">
        <ele>86.1</ele>
        <time>2012-11-04T08:43:27Z</time>
      </trkpt>
      <trkpt lat="49.82462" lon="2.28342">
        <ele>83</ele>
        <time>2012-11-04T08:43:36Z</time>
      </trkpt>
      <trkpt lat="49.82452" lon="2.28326">
        <ele>79.7</ele>
        <time>2012-11-04T08:43:46Z</time>
      </trkpt>
      <trkpt lat="49.82448" lon="2.28316">
        <ele>77.8</ele>
        <time>2012-11-04T08:43:52Z</time>
      </trkpt>
      <trkpt lat="49.82444" lon="2.28316">
        <ele>78</ele>
        <time>2012-11-04T08:43:55Z</time>
      </trkpt>
      <trkpt lat="49.82434" lon="2.28301">
        <ele>87.4</ele>
        <time>2012-11-04T08:44:06Z</time>
      </trkpt>
      <trkpt lat="49.82427" lon="2.28281">
        <ele>93.3</ele>
        <time>2012-11-04T08:44:24Z</time>
      </trkpt>
      <trkpt lat="49.82414" lon="2.28265">
        <ele>96</ele>
        <time>2012-11-04T08:44:36Z</time>
      </trkpt>
      <trkpt lat="49.82404" lon="2.28245">
        <ele>93.4</ele>
        <time>2012-11-04T08:44:44Z</time>
      </trkpt>
      <trkpt lat="49.82397" lon="2.2823">
        <ele>98.1</ele>
        <time>2012-11-04T08:44:50Z</time>
      </trkpt>
      <trkpt lat="49.82384" lon="2.28222">
        <ele>95</ele>
        <time>2012-11-04T08:44:55Z</time>
      </trkpt>
      <trkpt lat="49.82374" lon="2.28214">
        <ele>96.5</ele>
        <time>2012-11-04T08:45:02Z</time>
      </trkpt>
      <trkpt lat="49.8237" lon="2.282">
        <ele>99.2</ele>
        <time>2012-11-04T08:45:10Z</time>
      </trkpt>
      <trkpt lat="49.82359" lon="2.28186">
        <ele>81.2</ele>
        <time>2012-11-04T08:45:22Z</time>
      </trkpt>
      <trkpt lat="49.82357" lon="2.28162">
        <ele>79.6</ele>
        <time>2012-11-04T08:45:32Z</time>
      </trkpt>
      <trkpt lat="49.82357" lon="2.28139">
        <ele>72.1</ele>
        <time>2012-11-04T08:45:42Z</time>
      </trkpt>
      <trkpt lat="49.82355" lon="2.28118">
        <ele>82.8</ele>
        <time>2012-11-04T08:45:50Z</time>
      </trkpt>
      <trkpt lat="49.82356" lon="2.28094">
        <ele>85.1</ele>
        <time>2012-11-04T08:45:59Z</time>
      </trkpt>
      <trkpt lat="49.82354" lon="2.28073">
        <ele>87.6</ele>
        <time>2012-11-04T08:46:09Z</time>
      </trkpt>
      <trkpt lat="49.82351" lon="2.28051">
        <ele>90.4</ele>
        <time>2012-11-04T08:46:20Z</time>
      </trkpt>
      <trkpt lat="49.82346" lon="2.28027">
        <ele>93.7</ele>
        <time>2012-11-04T08:46:33Z</time>
      </trkpt>
      <trkpt lat="49.82336" lon="2.28007">
        <ele>89.9</ele>
        <time>2012-11-04T08:46:48Z</time>
      </trkpt>
      <trkpt lat="49.82327" lon="2.2799">
        <ele>83.3</ele>
        <time>2012-11-04T08:46:57Z</time>
      </trkpt>
      <trkpt lat="49.82323" lon="2.27967">
        <ele>73.2</ele>
        <time>2012-11-04T08:47:15Z</time>
      </trkpt>
      <trkpt lat="49.82318" lon="2.27945">
        <ele>73.8</ele>
        <time>2012-11-04T08:47:23Z</time>
      </trkpt>
      <trkpt lat="49.82308" lon="2.27925">
        <ele>80.5</ele>
        <time>2012-11-04T08:47:36Z</time>
      </trkpt>
      <trkpt lat="49.82296" lon="2.27911">
        <ele>84.4</ele>
        <time>2012-11-04T08:47:44Z</time>
      </trkpt>
      <trkpt lat="49.82287" lon="2.27892">
        <ele>86.2</ele>
        <time>2012-11-04T08:47:51Z</time>
      </trkpt>
      <trkpt lat="49.82281" lon="2.27868">
        <ele>90.6</ele>
        <time>2012-11-04T08:48:10Z</time>
      </trkpt>
      <trkpt lat="49.82271" lon="2.27853">
        <ele>92.3</ele>
        <time>2012-11-04T08:48:18Z</time>
      </trkpt>
      <trkpt lat="49.82263" lon="2.27836">
        <ele>94.4</ele>
        <time>2012-11-04T08:48:28Z</time>
      </trkpt>
      <trkpt lat="49.8225" lon="2.27823">
        <ele>99.1</ele>
        <time>2012-11-04T08:48:39Z</time>
      </trkpt>
      <trkpt lat="49.82239" lon="2.27806">
        <ele>96.8</ele>
        <time>2012-11-04T08:48:50Z</time>
      </trkpt>
      <trkpt lat="49.82229" lon="2.27791">
        <ele>94.8</ele>
        <time>2012-11-04T08:48:59Z</time>
      </trkpt>
      <trkpt lat="49.82226" lon="2.27769">
        <ele>101.6</ele>
        <time>2012-11-04T08:49:08Z</time>
      </trkpt>
      <trkpt lat="49.82217" lon="2.27753">
        <ele>94.5</ele>
        <time>2012-11-04T08:49:23Z</time>
      </trkpt>
      <trkpt lat="49.82214" lon="2.27732">
        <ele>91.3</ele>
        <time>2012-11-04T08:49:35Z</time>
      </trkpt>
      <trkpt lat="49.82209" lon="2.27721">
        <ele>87.5</ele>
        <time>2012-11-04T08:49:44Z</time>
      </trkpt>
      <trkpt lat="49.82204" lon="2.27718">
        <ele>84.5</ele>
        <time>2012-11-04T08:49:50Z</time>
      </trkpt>
      <trkpt lat="49.82196" lon="2.277">
        <ele>80.9</ele>
        <time>2012-11-04T08:50:10Z</time>
      </trkpt>
      <trkpt lat="49.82182" lon="2.27682">
        <ele>81.8</ele>
        <time>2012-11-04T08:50:16Z</time>
      </trkpt>
      <trkpt lat="49.82174" lon="2.27663">
        <ele>81.6</ele>
        <time>2012-11-04T08:50:25Z</time>
      </trkpt>
      <trkpt lat="49.82164" lon="2.27644">
        <ele>87.3</ele>
        <time>2012-11-04T08:50:37Z</time>
      </trkpt>
      <trkpt lat="49.82155" lon="2.27621">
        <ele>91.6</ele>
        <time>2012-11-04T08:50:46Z</time>
      </trkpt>
      <trkpt lat="49.82146" lon="2.27606">
        <ele>95.9</ele>
        <time>2012-11-04T08:50:55Z</time>
      </trkpt>
      <trkpt lat="49.82138" lon="2.27599">
        <ele>90.2</ele>
        <time>2012-11-04T08:51:07Z</time>
      </trkpt>
      <trkpt lat="49.82115" lon="2.27531">
        <ele>96</ele>
        <time>2012-11-04T08:51:17Z</time>
      </trkpt>
      <trkpt lat="49.82115" lon="2.27531">
        <ele>96</ele>
        <time>2012-11-04T09:00:05Z</time>
      </trkpt>
      <trkpt lat="49.821" lon="2.27484">
        <ele>99</ele>
        <time>2012-11-04T09:00:23Z</time>
      </trkpt>
      <trkpt lat="49.82097" lon="2.27463">
        <ele>95.9</ele>
        <time>2012-11-04T09:00:38Z</time>
      </trkpt>
      <trkpt lat="49.82092" lon="2.27444">
        <ele>102.5</ele>
        <time>2012-11-04T09:00:54Z</time>
      </trkpt>
      <trkpt lat="49.82089" lon="2.27423">
        <ele>102</ele>
        <time>2012-11-04T09:01:04Z</time>
      </trkpt>
      <trkpt lat="49.82087" lon="2.27397">
        <ele>100.4</ele>
        <time>2012-11-04T09:01:20Z</time>
      </trkpt>
      <trkpt lat="49.82078" lon="2.27378">
        <ele>102.7</ele>
        <time>2012-11-04T09:01:30Z</time>
      </trkpt>
      <trkpt lat="49.82074" lon="2.27357">
        <ele>100.8</ele>
        <time>2012-11-04T09:01:40Z</time>
      </trkpt>
      <trkpt lat="49.82065" lon="2.27338">
        <ele>104.8</ele>
        <time>2012-11-04T09:01:53Z</time>
      </trkpt>
      <trkpt lat="49.82065" lon="2.27316">
        <ele>102.6</ele>
        <time>2012-11-04T09:02:04Z</time>
      </trkpt>
      <trkpt lat="49.82074" lon="2.27299">
        <ele>104.9</ele>
        <time>2012-11-04T09:02:16Z</time>
      </trkpt>
      <trkpt lat="49.82077" lon="2.27278">
        <ele>99.7</ele>
        <time>2012-11-04T09:02:30Z</time>
      </trkpt>
      <trkpt lat="49.82079" lon="2.27256">
        <ele>103.1</ele>
        <time>2012-11-04T09:02:41Z</time>
      </trkpt>
      <trkpt lat="49.82077" lon="2.27233">
        <ele>106.8</ele>
        <time>2012-11-04T09:02:52Z</time>
      </trkpt>
      <trkpt lat="49.82072" lon="2.27214">
        <ele>110.1</ele>
        <time>2012-11-04T09:03:02Z</time>
      </trkpt>
      <trkpt lat="49.82067" lon="2.27195">
        <ele>112.1</ele>
        <time>2012-11-04T09:03:12Z</time>
      </trkpt>
      <trkpt lat="49.82059" lon="2.27175">
        <ele>106.3</ele>
        <time>2012-11-04T09:03:23Z</time>
      </trkpt>
      <trkpt lat="49.82052" lon="2.27156">
        <ele>106.2</ele>
        <time>2012-11-04T09:03:33Z</time>
      </trkpt>
      <trkpt lat="49.82046" lon="2.27135">
        <ele>109.2</ele>
        <time>2012-11-04T09:03:44Z</time>
      </trkpt>
      <trkpt lat="49.82035" lon="2.27121">
        <ele>106.7</ele>
        <time>2012-11-04T09:03:53Z</time>
      </trkpt>
      <trkpt lat="49.82025" lon="2.27108">
        <ele>103.3</ele>
        <time>2012-11-04T09:04:04Z</time>
      </trkpt>
      <trkpt lat="49.82017" lon="2.2709">
        <ele>100.2</ele>
        <time>2012-11-04T09:04:17Z</time>
      </trkpt>
      <trkpt lat="49.82008" lon="2.27072">
        <ele>102</ele>
        <time>2012-11-04T09:04:28Z</time>
      </trkpt>
      <trkpt lat="49.82001" lon="2.27051">
        <ele>100.8</ele>
        <time>2012-11-04T09:04:38Z</time>
      </trkpt>
      <trkpt lat="49.81991" lon="2.27036">
        <ele>100.3</ele>
        <time>2012-11-04T09:04:50Z</time>
      </trkpt>
      <trkpt lat="49.81979" lon="2.27021">
        <ele>104</ele>
        <time>2012-11-04T09:05:00Z</time>
      </trkpt>
      <trkpt lat="49.8197" lon="2.27005">
        <ele>103.7</ele>
        <time>2012-11-04T09:05:11Z</time>
      </trkpt>
      <trkpt lat="49.81962" lon="2.26986">
        <ele>102.8</ele>
        <time>2012-11-04T09:05:23Z</time>
      </trkpt>
      <trkpt lat="49.81953" lon="2.26967">
        <ele>101.8</ele>
        <time>2012-11-04T09:05:36Z</time>
      </trkpt>
      <trkpt lat="49.81948" lon="2.26947">
        <ele>105.7</ele>
        <time>2012-11-04T09:05:48Z</time>
      </trkpt>
      <trkpt lat="49.81943" lon="2.26927">
        <ele>105.4</ele>
        <time>2012-11-04T09:05:58Z</time>
      </trkpt>
      <trkpt lat="49.81934" lon="2.26909">
        <ele>109.3</ele>
        <time>2012-11-04T09:06:09Z</time>
      </trkpt>
      <trkpt lat="49.81929" lon="2.26888">
        <ele>112.6</ele>
        <time>2012-11-04T09:06:19Z</time>
      </trkpt>
      <trkpt lat="49.81925" lon="2.26868">
        <ele>115.9</ele>
        <time>2012-11-04T09:06:29Z</time>
      </trkpt>
      <trkpt lat="49.8192" lon="2.26848">
        <ele>113.7</ele>
        <time>2012-11-04T09:06:39Z</time>
      </trkpt>
      <trkpt lat="49.81915" lon="2.26827">
        <ele>111.5</ele>
        <time>2012-11-04T09:06:51Z</time>
      </trkpt>
      <trkpt lat="49.8191" lon="2.26807">
        <ele>110</ele>
        <time>2012-11-04T09:07:02Z</time>
      </trkpt>
      <trkpt lat="49.81906" lon="2.26787">
        <ele>112.1</ele>
        <time>2012-11-04T09:07:12Z</time>
      </trkpt>
      <trkpt lat="49.819" lon="2.26766">
        <ele>109.8</ele>
        <time>2012-11-04T09:07:22Z</time>
      </trkpt>
      <trkpt lat="49.81894" lon="2.26745">
        <ele>107.7</ele>
        <time>2012-11-04T09:07:34Z</time>
      </trkpt>
      <trkpt lat="49.8189" lon="2.26725">
        <ele>111.8</ele>
        <time>2012-11-04T09:07:44Z</time>
      </trkpt>
      <trkpt lat="49.81883" lon="2.26703">
        <ele>113.5</ele>
        <time>2012-11-04T09:07:57Z</time>
      </trkpt>
      <trkpt lat="49.8188" lon="2.26663">
        <ele>113.1</ele>
        <time>2012-11-04T09:08:18Z</time>
      </trkpt>
      <trkpt lat="49.8188" lon="2.26663">
        <ele>113.1</ele>
        <time>2012-11-04T09:13:34Z</time>
      </trkpt>
      <trkpt lat="49.8188" lon="2.26636">
        <ele>114.8</ele>
        <time>2012-11-04T09:13:40Z</time>
      </trkpt>
      <trkpt lat="49.8188" lon="2.26636">
        <ele>114.8</ele>
        <time>2012-11-04T09:21:41Z</time>
      </trkpt>
      <trkpt lat="49.81882" lon="2.26627">
        <ele>115.7</ele>
        <time>2012-11-04T09:21:54Z</time>
      </trkpt>
      <trkpt lat="49.81895" lon="2.26614">
        <ele>113.4</ele>
        <time>2012-11-04T09:22:05Z</time>
      </trkpt>
      <trkpt lat="49.81906" lon="2.26601">
        <ele>114</ele>
        <time>2012-11-04T09:22:15Z</time>
      </trkpt>
      <trkpt lat="49.81916" lon="2.26587">
        <ele>114.6</ele>
        <time>2012-11-04T09:22:26Z</time>
      </trkpt>
      <trkpt lat="49.81925" lon="2.26571">
        <ele>115.1</ele>
        <time>2012-11-04T09:22:35Z</time>
      </trkpt>
      <trkpt lat="49.81933" lon="2.26551">
        <ele>115.8</ele>
        <time>2012-11-04T09:22:46Z</time>
      </trkpt>
      <trkpt lat="49.81941" lon="2.26535">
        <ele>116.3</ele>
        <time>2012-11-04T09:22:56Z</time>
      </trkpt>
      <trkpt lat="49.81949" lon="2.26517">
        <ele>116.8</ele>
        <time>2012-11-04T09:23:05Z</time>
      </trkpt>
      <trkpt lat="49.81957" lon="2.265">
        <ele>117.4</ele>
        <time>2012-11-04T09:23:16Z</time>
      </trkpt>
      <trkpt lat="49.81965" lon="2.26482">
        <ele>117</ele>
        <time>2012-11-04T09:23:27Z</time>
      </trkpt>
      <trkpt lat="49.81972" lon="2.26462">
        <ele>116.2</ele>
        <time>2012-11-04T09:23:37Z</time>
      </trkpt>
      <trkpt lat="49.81984" lon="2.26443">
        <ele>115.4</ele>
        <time>2012-11-04T09:23:48Z</time>
      </trkpt>
      <trkpt lat="49.81992" lon="2.26425">
        <ele>113.7</ele>
        <time>2012-11-04T09:24:10Z</time>
      </trkpt>
      <trkpt lat="49.82001" lon="2.26402">
        <ele>114.8</ele>
        <time>2012-11-04T09:24:20Z</time>
      </trkpt>
      <trkpt lat="49.82008" lon="2.26384">
        <ele>116.1</ele>
        <time>2012-11-04T09:24:32Z</time>
      </trkpt>
      <trkpt lat="49.82016" lon="2.26366">
        <ele>114.3</ele>
        <time>2012-11-04T09:24:42Z</time>
      </trkpt>
      <trkpt lat="49.82024" lon="2.26348">
        <ele>114.2</ele>
        <time>2012-11-04T09:24:52Z</time>
      </trkpt>
      <trkpt lat="49.82034" lon="2.26331">
        <ele>114.2</ele>
        <time>2012-11-04T09:25:02Z</time>
      </trkpt>
      <trkpt lat="49.82042" lon="2.26314">
        <ele>111.8</ele>
        <time>2012-11-04T09:25:12Z</time>
      </trkpt>
      <trkpt lat="49.82052" lon="2.26296">
        <ele>114.3</ele>
        <time>2012-11-04T09:25:23Z</time>
      </trkpt>
      <trkpt lat="49.82061" lon="2.26281">
        <ele>117.2</ele>
        <time>2012-11-04T09:25:32Z</time>
      </trkpt>
      <trkpt lat="49.82071" lon="2.26266">
        <ele>115.4</ele>
        <time>2012-11-04T09:25:41Z</time>
      </trkpt>
      <trkpt lat="49.82083" lon="2.26253">
        <ele>112.4</ele>
        <time>2012-11-04T09:25:52Z</time>
      </trkpt>
      <trkpt lat="49.82095" lon="2.26242">
        <ele>110.7</ele>
        <time>2012-11-04T09:26:02Z</time>
      </trkpt>
      <trkpt lat="49.82108" lon="2.26235">
        <ele>109.2</ele>
        <time>2012-11-04T09:26:11Z</time>
      </trkpt>
      <trkpt lat="49.82122" lon="2.26227">
        <ele>107.6</ele>
        <time>2012-11-04T09:26:22Z</time>
      </trkpt>
      <trkpt lat="49.82135" lon="2.26215">
        <ele>109.2</ele>
        <time>2012-11-04T09:26:31Z</time>
      </trkpt>
      <trkpt lat="49.82149" lon="2.26207">
        <ele>106.7</ele>
        <time>2012-11-04T09:26:42Z</time>
      </trkpt>
      <trkpt lat="49.82163" lon="2.26205">
        <ele>107.8</ele>
        <time>2012-11-04T09:26:52Z</time>
      </trkpt>
      <trkpt lat="49.82176" lon="2.26196">
        <ele>108.4</ele>
        <time>2012-11-04T09:27:02Z</time>
      </trkpt>
      <trkpt lat="49.82189" lon="2.26186">
        <ele>109.1</ele>
        <time>2012-11-04T09:27:12Z</time>
      </trkpt>
      <trkpt lat="49.82201" lon="2.26173">
        <ele>109.9</ele>
        <time>2012-11-04T09:27:23Z</time>
      </trkpt>
      <trkpt lat="49.82213" lon="2.26164">
        <ele>110.6</ele>
        <time>2012-11-04T09:27:33Z</time>
      </trkpt>
      <trkpt lat="49.82226" lon="2.26152">
        <ele>108.8</ele>
        <time>2012-11-04T09:27:45Z</time>
      </trkpt>
      <trkpt lat="49.8224" lon="2.26144">
        <ele>108.2</ele>
        <time>2012-11-04T09:28:01Z</time>
      </trkpt>
      <trkpt lat="49.82253" lon="2.26136">
        <ele>111.8</ele>
        <time>2012-11-04T09:28:09Z</time>
      </trkpt>
      <trkpt lat="49.82267" lon="2.26129">
        <ele>108.8</ele>
        <time>2012-11-04T09:28:17Z</time>
      </trkpt>
      <trkpt lat="49.8228" lon="2.26125">
        <ele>107.8</ele>
        <time>2012-11-04T09:28:26Z</time>
      </trkpt>
      <trkpt lat="49.82295" lon="2.26125">
        <ele>110.9</ele>
        <time>2012-11-04T09:28:36Z</time>
      </trkpt>
      <trkpt lat="49.82308" lon="2.26121">
        <ele>111.3</ele>
        <time>2012-11-04T09:28:45Z</time>
      </trkpt>
      <trkpt lat="49.82322" lon="2.26124">
        <ele>111.7</ele>
        <time>2012-11-04T09:28:55Z</time>
      </trkpt>
      <trkpt lat="49.82337" lon="2.26127">
        <ele>112.2</ele>
        <time>2012-11-04T09:29:06Z</time>
      </trkpt>
      <trkpt lat="49.82351" lon="2.26128">
        <ele>112.7</ele>
        <time>2012-11-04T09:29:17Z</time>
      </trkpt>
      <trkpt lat="49.82365" lon="2.2613">
        <ele>113.1</ele>
        <time>2012-11-04T09:29:28Z</time>
      </trkpt>
      <trkpt lat="49.8238" lon="2.26131">
        <ele>108.7</ele>
        <time>2012-11-04T09:29:41Z</time>
      </trkpt>
      <trkpt lat="49.82393" lon="2.26142">
        <ele>100.1</ele>
        <time>2012-11-04T09:29:56Z</time>
      </trkpt>
      <trkpt lat="49.82406" lon="2.26144">
        <ele>103.1</ele>
        <time>2012-11-04T09:30:04Z</time>
      </trkpt>
      <trkpt lat="49.82422" lon="2.26143">
        <ele>98.5</ele>
        <time>2012-11-04T09:30:12Z</time>
      </trkpt>
      <trkpt lat="49.82436" lon="2.26149">
        <ele>99.1</ele>
        <time>2012-11-04T09:30:23Z</time>
      </trkpt>
      <trkpt lat="49.82452" lon="2.26152">
        <ele>94.6</ele>
        <time>2012-11-04T09:30:36Z</time>
      </trkpt>
      <trkpt lat="49.82467" lon="2.26155">
        <ele>92.8</ele>
        <time>2012-11-04T09:30:44Z</time>
      </trkpt>
      <trkpt lat="49.82481" lon="2.2616">
        <ele>93.7</ele>
        <time>2012-11-04T09:30:57Z</time>
      </trkpt>
      <trkpt lat="49.82495" lon="2.26161">
        <ele>97.6</ele>
        <time>2012-11-04T09:31:06Z</time>
      </trkpt>
      <trkpt lat="49.82509" lon="2.26165">
        <ele>97.3</ele>
        <time>2012-11-04T09:31:14Z</time>
      </trkpt>
      <trkpt lat="49.82523" lon="2.26169">
        <ele>96.7</ele>
        <time>2012-11-04T09:31:26Z</time>
      </trkpt>
      <trkpt lat="49.82537" lon="2.26172">
        <ele>99.6</ele>
        <time>2012-11-04T09:31:34Z</time>
      </trkpt>
      <trkpt lat="49.82551" lon="2.2618">
        <ele>104.6</ele>
        <time>2012-11-04T09:31:46Z</time>
      </trkpt>
      <trkpt lat="49.8256" lon="2.26189">
        <ele>92.6</ele>
        <time>2012-11-04T09:31:55Z</time>
      </trkpt>
      <trkpt lat="49.82569" lon="2.26214">
        <ele>82.9</ele>
        <time>2012-11-04T09:32:21Z</time>
      </trkpt>
      <trkpt lat="49.8258" lon="2.26231">
        <ele>89.3</ele>
        <time>2012-11-04T09:32:33Z</time>
      </trkpt>
      <trkpt lat="49.82597" lon="2.26242">
        <ele>97.2</ele>
        <time>2012-11-04T09:32:47Z</time>
      </trkpt>
      <trkpt lat="49.82612" lon="2.26247">
        <ele>102.7</ele>
        <time>2012-11-04T09:33:00Z</time>
      </trkpt>
      <trkpt lat="49.82627" lon="2.26246">
        <ele>100.2</ele>
        <time>2012-11-04T09:33:07Z</time>
      </trkpt>
      <trkpt lat="49.82629" lon="2.26244">
        <ele>99.8</ele>
        <time>2012-11-04T09:33:08Z</time>
      </trkpt>
      <trkpt lat="49.82627" lon="2.26242">
        <ele>100.6</ele>
        <time>2012-11-04T09:33:09Z</time>
      </trkpt>
      <trkpt lat="49.8264" lon="2.26236">
        <ele>102.5</ele>
        <time>2012-11-04T09:33:19Z</time>
      </trkpt>
      <trkpt lat="49.82658" lon="2.26241">
        <ele>95.5</ele>
        <time>2012-11-04T09:33:32Z</time>
      </trkpt>
      <trkpt lat="49.82673" lon="2.26248">
        <ele>91.6</ele>
        <time>2012-11-04T09:33:46Z</time>
      </trkpt>
      <trkpt lat="49.82688" lon="2.26251">
        <ele>93.5</ele>
        <time>2012-11-04T09:33:56Z</time>
      </trkpt>
      <trkpt lat="49.827" lon="2.26242">
        <ele>98.6</ele>
        <time>2012-11-04T09:34:07Z</time>
      </trkpt>
      <trkpt lat="49.82717" lon="2.26247">
        <ele>94.9</ele>
        <time>2012-11-04T09:34:27Z</time>
      </trkpt>
      <trkpt lat="49.8273" lon="2.26258">
        <ele>93.6</ele>
        <time>2012-11-04T09:34:34Z</time>
      </trkpt>
      <trkpt lat="49.82746" lon="2.26268">
        <ele>90.8</ele>
        <time>2012-11-04T09:34:45Z</time>
      </trkpt>
      <trkpt lat="49.82761" lon="2.26274">
        <ele>86.1</ele>
        <time>2012-11-04T09:34:51Z</time>
      </trkpt>
      <trkpt lat="49.82775" lon="2.26278">
        <ele>87.2</ele>
        <time>2012-11-04T09:34:56Z</time>
      </trkpt>
      <trkpt lat="49.82791" lon="2.26281">
        <ele>89.5</ele>
        <time>2012-11-04T09:35:04Z</time>
      </trkpt>
      <trkpt lat="49.82805" lon="2.26285">
        <ele>92.7</ele>
        <time>2012-11-04T09:35:13Z</time>
      </trkpt>
      <trkpt lat="49.82816" lon="2.26301">
        <ele>98.8</ele>
        <time>2012-11-04T09:35:24Z</time>
      </trkpt>
      <trkpt lat="49.82825" lon="2.26317">
        <ele>94.7</ele>
        <time>2012-11-04T09:35:34Z</time>
      </trkpt>
      <trkpt lat="49.82835" lon="2.26333">
        <ele>93.7</ele>
        <time>2012-11-04T09:35:42Z</time>
      </trkpt>
      <trkpt lat="49.82843" lon="2.26352">
        <ele>93.9</ele>
        <time>2012-11-04T09:35:49Z</time>
      </trkpt>
      <trkpt lat="49.82844" lon="2.26357">
        <ele>94</ele>
        <time>2012-11-04T09:35:52Z</time>
      </trkpt>
      <trkpt lat="49.82842" lon="2.26362">
        <ele>94.1</ele>
        <time>2012-11-04T09:35:55Z</time>
      </trkpt>
      <trkpt lat="49.82851" lon="2.26379">
        <ele>93.1</ele>
        <time>2012-11-04T09:36:06Z</time>
      </trkpt>
      <trkpt lat="49.8286" lon="2.26396">
        <ele>95.3</ele>
        <time>2012-11-04T09:36:16Z</time>
      </trkpt>
      <trkpt lat="49.82868" lon="2.26415">
        <ele>88.3</ele>
        <time>2012-11-04T09:36:29Z</time>
      </trkpt>
      <trkpt lat="49.82874" lon="2.26429">
        <ele>83.8</ele>
        <time>2012-11-04T09:36:40Z</time>
      </trkpt>
      <trkpt lat="49.82869" lon="2.26438">
        <ele>80.7</ele>
        <time>2012-11-04T09:36:46Z</time>
      </trkpt>
      <trkpt lat="49.82869" lon="2.26461">
        <ele>84.9</ele>
        <time>2012-11-04T09:36:56Z</time>
      </trkpt>
      <trkpt lat="49.82884" lon="2.26472">
        <ele>86.8</ele>
        <time>2012-11-04T09:37:01Z</time>
      </trkpt>
      <trkpt lat="49.82896" lon="2.26483">
        <ele>89</ele>
        <time>2012-11-04T09:37:07Z</time>
      </trkpt>
      <trkpt lat="49.82909" lon="2.26498">
        <ele>92.7</ele>
        <time>2012-11-04T09:37:19Z</time>
      </trkpt>
      <trkpt lat="49.82917" lon="2.26518">
        <ele>89.6</ele>
        <time>2012-11-04T09:37:28Z</time>
      </trkpt>
      <trkpt lat="49.82926" lon="2.26535">
        <ele>89.5</ele>
        <time>2012-11-04T09:37:40Z</time>
      </trkpt>
      <trkpt lat="49.82934" lon="2.26549">
        <ele>94.2</ele>
        <time>2012-11-04T09:37:51Z</time>
      </trkpt>
      <trkpt lat="49.82937" lon="2.26577">
        <ele>101.4</ele>
        <time>2012-11-04T09:38:07Z</time>
      </trkpt>
      <trkpt lat="49.82946" lon="2.26598">
        <ele>105.9</ele>
        <time>2012-11-04T09:38:37Z</time>
      </trkpt>
      <trkpt lat="49.82953" lon="2.26619">
        <ele>102.7</ele>
        <time>2012-11-04T09:38:50Z</time>
      </trkpt>
      <trkpt lat="49.8296" lon="2.26643">
        <ele>99.4</ele>
        <time>2012-11-04T09:39:04Z</time>
      </trkpt>
      <trkpt lat="49.82963" lon="2.26656">
        <ele>97.5</ele>
        <time>2012-11-04T09:39:07Z</time>
      </trkpt>
      <trkpt lat="49.82963" lon="2.26675">
        <ele>90</ele>
        <time>2012-11-04T09:39:14Z</time>
      </trkpt>
      <trkpt lat="49.82971" lon="2.26687">
        <ele>91.7</ele>
        <time>2012-11-04T09:39:21Z</time>
      </trkpt>
      <trkpt lat="49.82977" lon="2.26709">
        <ele>89.8</ele>
        <time>2012-11-04T09:39:29Z</time>
      </trkpt>
      <trkpt lat="49.82984" lon="2.26733">
        <ele>95.3</ele>
        <time>2012-11-04T09:39:40Z</time>
      </trkpt>
      <trkpt lat="49.82984" lon="2.26749">
        <ele>97.6</ele>
        <time>2012-11-04T09:39:50Z</time>
      </trkpt>
      <trkpt lat="49.82989" lon="2.26756">
        <ele>98</ele>
        <time>2012-11-04T09:39:52Z</time>
      </trkpt>
      <trkpt lat="49.82995" lon="2.26777">
        <ele>91.8</ele>
        <time>2012-11-04T09:40:01Z</time>
      </trkpt>
      <trkpt lat="49.83005" lon="2.26795">
        <ele>87.8</ele>
        <time>2012-11-04T09:40:11Z</time>
      </trkpt>
      <trkpt lat="49.83009" lon="2.26828">
        <ele>98.5</ele>
        <time>2012-11-04T09:40:40Z</time>
      </trkpt>
      <trkpt lat="49.83009" lon="2.26828">
        <ele>98.5</ele>
        <time>2012-11-04T09:46:02Z</time>
      </trkpt>
      <trkpt lat="49.83005" lon="2.26843">
        <ele>97.2</ele>
        <time>2012-11-04T09:46:03Z</time>
      </trkpt>
      <trkpt lat="49.82998" lon="2.26865">
        <ele>101.2</ele>
        <time>2012-11-04T09:46:15Z</time>
      </trkpt>
      <trkpt lat="49.8299" lon="2.26884">
        <ele>104.3</ele>
        <time>2012-11-04T09:46:26Z</time>
      </trkpt>
      <trkpt lat="49.82982" lon="2.26903">
        <ele>99.6</ele>
        <time>2012-11-04T09:46:36Z</time>
      </trkpt>
      <trkpt lat="49.82973" lon="2.26921">
        <ele>95.4</ele>
        <time>2012-11-04T09:46:46Z</time>
      </trkpt>
      <trkpt lat="49.82965" lon="2.2694">
        <ele>94.4</ele>
        <time>2012-11-04T09:46:56Z</time>
      </trkpt>
      <trkpt lat="49.82958" lon="2.26961">
        <ele>95.6</ele>
        <time>2012-11-04T09:47:07Z</time>
      </trkpt>
      <trkpt lat="49.82953" lon="2.26982">
        <ele>98.7</ele>
        <time>2012-11-04T09:47:17Z</time>
      </trkpt>
      <trkpt lat="49.82946" lon="2.27002">
        <ele>96.2</ele>
        <time>2012-11-04T09:47:28Z</time>
      </trkpt>
      <trkpt lat="49.82941" lon="2.27022">
        <ele>97.5</ele>
        <time>2012-11-04T09:47:38Z</time>
      </trkpt>
      <trkpt lat="49.8294" lon="2.27045">
        <ele>100</ele>
        <time>2012-11-04T09:47:47Z</time>
      </trkpt>
      <trkpt lat="49.82942" lon="2.27067">
        <ele>102</ele>
        <time>2012-11-04T09:47:57Z</time>
      </trkpt>
      <trkpt lat="49.82943" lon="2.27089">
        <ele>104.4</ele>
        <time>2012-11-04T09:48:06Z</time>
      </trkpt>
      <trkpt lat="49.82949" lon="2.27109">
        <ele>110.4</ele>
        <time>2012-11-04T09:48:16Z</time>
      </trkpt>
      <trkpt lat="49.82958" lon="2.27127">
        <ele>114.1</ele>
        <time>2012-11-04T09:48:26Z</time>
      </trkpt>
      <trkpt lat="49.82964" lon="2.27146">
        <ele>112.5</ele>
        <time>2012-11-04T09:48:36Z</time>
      </trkpt>
      <trkpt lat="49.8297" lon="2.27166">
        <ele>110.8</ele>
        <time>2012-11-04T09:48:46Z</time>
      </trkpt>
      <trkpt lat="49.82978" lon="2.27185">
        <ele>109.1</ele>
        <time>2012-11-04T09:48:57Z</time>
      </trkpt>
      <trkpt lat="49.82987" lon="2.27202">
        <ele>110.8</ele>
        <time>2012-11-04T09:49:07Z</time>
      </trkpt>
      <trkpt lat="49.82998" lon="2.27218">
        <ele>113.2</ele>
        <time>2012-11-04T09:49:17Z</time>
      </trkpt>
      <trkpt lat="49.83008" lon="2.27233">
        <ele>115.3</ele>
        <time>2012-11-04T09:49:27Z</time>
      </trkpt>
      <trkpt lat="49.83018" lon="2.27249">
        <ele>115</ele>
        <time>2012-11-04T09:49:37Z</time>
      </trkpt>
      <trkpt lat="49.83019" lon="2.27274">
        <ele>110.2</ele>
        <time>2012-11-04T09:49:48Z</time>
      </trkpt>
      <trkpt lat="49.83016" lon="2.27296">
        <ele>110</ele>
        <time>2012-11-04T09:50:00Z</time>
      </trkpt>
      <trkpt lat="49.83015" lon="2.27318">
        <ele>110</ele>
        <time>2012-11-04T09:50:10Z</time>
      </trkpt>
      <trkpt lat="49.83015" lon="2.2734">
        <ele>111</ele>
        <time>2012-11-04T09:50:20Z</time>
      </trkpt>
      <trkpt lat="49.83015" lon="2.27362">
        <ele>116.6</ele>
        <time>2012-11-04T09:50:31Z</time>
      </trkpt>
      <trkpt lat="49.83015" lon="2.27385">
        <ele>109</ele>
        <time>2012-11-04T09:50:42Z</time>
      </trkpt>
      <trkpt lat="49.83014" lon="2.27407">
        <ele>108.1</ele>
        <time>2012-11-04T09:50:51Z</time>
      </trkpt>
      <trkpt lat="49.83012" lon="2.27429">
        <ele>107.2</ele>
        <time>2012-11-04T09:51:00Z</time>
      </trkpt>
      <trkpt lat="49.83011" lon="2.27451">
        <ele>106.2</ele>
        <time>2012-11-04T09:51:10Z</time>
      </trkpt>
      <trkpt lat="49.83012" lon="2.27473">
        <ele>106.4</ele>
        <time>2012-11-04T09:51:20Z</time>
      </trkpt>
      <trkpt lat="49.83015" lon="2.27495">
        <ele>106.1</ele>
        <time>2012-11-04T09:51:31Z</time>
      </trkpt>
      <trkpt lat="49.8302" lon="2.27516">
        <ele>106</ele>
        <time>2012-11-04T09:51:41Z</time>
      </trkpt>
      <trkpt lat="49.83027" lon="2.27537">
        <ele>105.7</ele>
        <time>2012-11-04T09:51:51Z</time>
      </trkpt>
      <trkpt lat="49.83034" lon="2.27556">
        <ele>102.2</ele>
        <time>2012-11-04T09:52:02Z</time>
      </trkpt>
      <trkpt lat="49.83038" lon="2.27584">
        <ele>103</ele>
        <time>2012-11-04T09:52:11Z</time>
      </trkpt>
      <trkpt lat="49.83042" lon="2.27607">
        <ele>102.8</ele>
        <time>2012-11-04T09:52:22Z</time>
      </trkpt>
      <trkpt lat="49.83047" lon="2.27627">
        <ele>107.4</ele>
        <time>2012-11-04T09:52:33Z</time>
      </trkpt>
      <trkpt lat="49.83049" lon="2.27649">
        <ele>100.9</ele>
        <time>2012-11-04T09:52:45Z</time>
      </trkpt>
      <trkpt lat="49.83053" lon="2.2767">
        <ele>101.8</ele>
        <time>2012-11-04T09:52:56Z</time>
      </trkpt>
      <trkpt lat="49.83057" lon="2.27692">
        <ele>103.7</ele>
        <time>2012-11-04T09:53:06Z</time>
      </trkpt>
      <trkpt lat="49.8306" lon="2.27713">
        <ele>103.9</ele>
        <time>2012-11-04T09:53:15Z</time>
      </trkpt>
      <trkpt lat="49.83064" lon="2.27734">
        <ele>104.4</ele>
        <time>2012-11-04T09:53:25Z</time>
      </trkpt>
      <trkpt lat="49.83067" lon="2.27756">
        <ele>104.6</ele>
        <time>2012-11-04T09:53:34Z</time>
      </trkpt>
      <trkpt lat="49.83072" lon="2.27777">
        <ele>101.9</ele>
        <time>2012-11-04T09:53:46Z</time>
      </trkpt>
      <trkpt lat="49.83076" lon="2.27798">
        <ele>100.1</ele>
        <time>2012-11-04T09:53:57Z</time>
      </trkpt>
      <trkpt lat="49.8308" lon="2.27819">
        <ele>99.1</ele>
        <time>2012-11-04T09:54:07Z</time>
      </trkpt>
      <trkpt lat="49.83084" lon="2.27839">
        <ele>98.1</ele>
        <time>2012-11-04T09:54:17Z</time>
      </trkpt>
      <trkpt lat="49.83088" lon="2.2786">
        <ele>97.2</ele>
        <time>2012-11-04T09:54:27Z</time>
      </trkpt>
      <trkpt lat="49.8309" lon="2.27882">
        <ele>102.1</ele>
        <time>2012-11-04T09:54:36Z</time>
      </trkpt>
      <trkpt lat="49.83094" lon="2.27903">
        <ele>98.7</ele>
        <time>2012-11-04T09:54:46Z</time>
      </trkpt>
      <trkpt lat="49.83098" lon="2.27926">
        <ele>96.4</ele>
        <time>2012-11-04T09:54:58Z</time>
      </trkpt>
      <trkpt lat="49.83103" lon="2.27948">
        <ele>92.1</ele>
        <time>2012-11-04T09:55:09Z</time>
      </trkpt>
      <trkpt lat="49.83109" lon="2.27967">
        <ele>93.4</ele>
        <time>2012-11-04T09:55:19Z</time>
      </trkpt>
      <trkpt lat="49.83115" lon="2.27988">
        <ele>90.2</ele>
        <time>2012-11-04T09:55:29Z</time>
      </trkpt>
      <trkpt lat="49.8312" lon="2.28009">
        <ele>88</ele>
        <time>2012-11-04T09:55:40Z</time>
      </trkpt>
      <trkpt lat="49.83125" lon="2.2803">
        <ele>89</ele>
        <time>2012-11-04T09:55:50Z</time>
      </trkpt>
      <trkpt lat="49.83128" lon="2.28053">
        <ele>92.6</ele>
        <time>2012-11-04T09:55:59Z</time>
      </trkpt>
      <trkpt lat="49.83131" lon="2.28076">
        <ele>94</ele>
        <time>2012-11-04T09:56:09Z</time>
      </trkpt>
      <trkpt lat="49.83129" lon="2.28098">
        <ele>91.4</ele>
        <time>2012-11-04T09:56:21Z</time>
      </trkpt>
      <trkpt lat="49.8313" lon="2.28119">
        <ele>88.4</ele>
        <time>2012-11-04T09:56:31Z</time>
      </trkpt>
      <trkpt lat="49.83133" lon="2.2814">
        <ele>83.3</ele>
        <time>2012-11-04T09:56:41Z</time>
      </trkpt>
      <trkpt lat="49.83133" lon="2.28162">
        <ele>80.2</ele>
        <time>2012-11-04T09:56:53Z</time>
      </trkpt>
      <trkpt lat="49.83135" lon="2.28183">
        <ele>84.7</ele>
        <time>2012-11-04T09:57:03Z</time>
      </trkpt>
      <trkpt lat="49.83134" lon="2.28205">
        <ele>88.6</ele>
        <time>2012-11-04T09:57:12Z</time>
      </trkpt>
      <trkpt lat="49.83136" lon="2.28227">
        <ele>85.9</ele>
        <time>2012-11-04T09:57:21Z</time>
      </trkpt>
      <trkpt lat="49.83135" lon="2.2825">
        <ele>83.9</ele>
        <time>2012-11-04T09:57:32Z</time>
      </trkpt>
      <trkpt lat="49.83135" lon="2.28271">
        <ele>80.8</ele>
        <time>2012-11-04T09:57:42Z</time>
      </trkpt>
      <trkpt lat="49.83138" lon="2.28292">
        <ele>85</ele>
        <time>2012-11-04T09:57:53Z</time>
      </trkpt>
      <trkpt lat="49.83138" lon="2.28315">
        <ele>82</ele>
        <time>2012-11-04T09:58:03Z</time>
      </trkpt>
      <trkpt lat="49.83135" lon="2.28337">
        <ele>81.1</ele>
        <time>2012-11-04T09:58:13Z</time>
      </trkpt>
      <trkpt lat="49.8313" lon="2.28357">
        <ele>83.8</ele>
        <time>2012-11-04T09:58:23Z</time>
      </trkpt>
      <trkpt lat="49.83125" lon="2.28378">
        <ele>81.3</ele>
        <time>2012-11-04T09:58:34Z</time>
      </trkpt>
      <trkpt lat="49.83124" lon="2.28399">
        <ele>78.7</ele>
        <time>2012-11-04T09:58:44Z</time>
      </trkpt>
      <trkpt lat="49.83122" lon="2.2842">
        <ele>82.1</ele>
        <time>2012-11-04T09:58:54Z</time>
      </trkpt>
      <trkpt lat="49.83122" lon="2.28441">
        <ele>82.2</ele>
        <time>2012-11-04T09:59:04Z</time>
      </trkpt>
      <trkpt lat="49.83124" lon="2.28463">
        <ele>80.6</ele>
        <time>2012-11-04T09:59:14Z</time>
      </trkpt>
      <trkpt lat="49.83124" lon="2.28485">
        <ele>75.1</ele>
        <time>2012-11-04T09:59:24Z</time>
      </trkpt>
      <trkpt lat="49.83124" lon="2.28509">
        <ele>79.8</ele>
        <time>2012-11-04T09:59:35Z</time>
      </trkpt>
      <trkpt lat="49.83122" lon="2.2853">
        <ele>77.2</ele>
        <time>2012-11-04T09:59:45Z</time>
      </trkpt>
      <trkpt lat="49.83123" lon="2.28552">
        <ele>74.4</ele>
        <time>2012-11-04T09:59:56Z</time>
      </trkpt>
      <trkpt lat="49.83124" lon="2.28574">
        <ele>76.6</ele>
        <time>2012-11-04T10:00:06Z</time>
      </trkpt>
      <trkpt lat="49.83125" lon="2.28596">
        <ele>76.1</ele>
        <time>2012-11-04T10:00:16Z</time>
      </trkpt>
      <trkpt lat="49.83128" lon="2.28616">
        <ele>79.1</ele>
        <time>2012-11-04T10:00:25Z</time>
      </trkpt>
      <trkpt lat="49.83131" lon="2.28639">
        <ele>78.8</ele>
        <time>2012-11-04T10:00:35Z</time>
      </trkpt>
      <trkpt lat="49.83134" lon="2.28661">
        <ele>77.6</ele>
        <time>2012-11-04T10:00:45Z</time>
      </trkpt>
      <trkpt lat="49.83137" lon="2.28684">
        <ele>78.7</ele>
        <time>2012-11-04T10:00:56Z</time>
      </trkpt>
      <trkpt lat="49.83141" lon="2.28706">
        <ele>85.2</ele>
        <time>2012-11-04T10:01:07Z</time>
      </trkpt>
      <trkpt lat="49.83145" lon="2.28726">
        <ele>84.3</ele>
        <time>2012-11-04T10:01:17Z</time>
      </trkpt>
      <trkpt lat="49.83149" lon="2.28747">
        <ele>78.5</ele>
        <time>2012-11-04T10:01:27Z</time>
      </trkpt>
      <trkpt lat="49.83151" lon="2.28769">
        <ele>82</ele>
        <time>2012-11-04T10:01:38Z</time>
      </trkpt>
      <trkpt lat="49.83153" lon="2.2879">
        <ele>80.5</ele>
        <time>2012-11-04T10:01:48Z</time>
      </trkpt>
      <trkpt lat="49.83153" lon="2.28813">
        <ele>76.9</ele>
        <time>2012-11-04T10:01:59Z</time>
      </trkpt>
      <trkpt lat="49.8315" lon="2.28835">
        <ele>75.2</ele>
        <time>2012-11-04T10:02:11Z</time>
      </trkpt>
      <trkpt lat="49.83148" lon="2.28857">
        <ele>78.4</ele>
        <time>2012-11-04T10:02:21Z</time>
      </trkpt>
      <trkpt lat="49.83145" lon="2.28878">
        <ele>72</ele>
        <time>2012-11-04T10:02:31Z</time>
      </trkpt>
      <trkpt lat="49.83145" lon="2.289">
        <ele>69.9</ele>
        <time>2012-11-04T10:02:40Z</time>
      </trkpt>
      <trkpt lat="49.83146" lon="2.28921">
        <ele>70.1</ele>
        <time>2012-11-04T10:02:51Z</time>
      </trkpt>
      <trkpt lat="49.83149" lon="2.28943">
        <ele>74.1</ele>
        <time>2012-11-04T10:03:03Z</time>
      </trkpt>
      <trkpt lat="49.83154" lon="2.28964">
        <ele>73.5</ele>
        <time>2012-11-04T10:03:14Z</time>
      </trkpt>
      <trkpt lat="49.83162" lon="2.28985">
        <ele>72.9</ele>
        <time>2012-11-04T10:03:23Z</time>
      </trkpt>
      <trkpt lat="49.83169" lon="2.29009">
        <ele>71.7</ele>
        <time>2012-11-04T10:03:35Z</time>
      </trkpt>
      <trkpt lat="49.83174" lon="2.2903">
        <ele>70.2</ele>
        <time>2012-11-04T10:03:49Z</time>
      </trkpt>
      <trkpt lat="49.83181" lon="2.2905">
        <ele>69.2</ele>
        <time>2012-11-04T10:03:59Z</time>
      </trkpt>
      <trkpt lat="49.83188" lon="2.2907">
        <ele>74</ele>
        <time>2012-11-04T10:04:09Z</time>
      </trkpt>
      <trkpt lat="49.83195" lon="2.29093">
        <ele>76.7</ele>
        <time>2012-11-04T10:04:20Z</time>
      </trkpt>
      <trkpt lat="49.83201" lon="2.29112">
        <ele>73.2</ele>
        <time>2012-11-04T10:04:31Z</time>
      </trkpt>
      <trkpt lat="49.83207" lon="2.29132">
        <ele>76.1</ele>
        <time>2012-11-04T10:04:42Z</time>
      </trkpt>
      <trkpt lat="49.83215" lon="2.29151">
        <ele>72.1</ele>
        <time>2012-11-04T10:04:53Z</time>
      </trkpt>
      <trkpt lat="49.83223" lon="2.2917">
        <ele>71.1</ele>
        <time>2012-11-04T10:05:04Z</time>
      </trkpt>
      <trkpt lat="49.83231" lon="2.29189">
        <ele>71.4</ele>
        <time>2012-11-04T10:05:15Z</time>
      </trkpt>
      <trkpt lat="49.83237" lon="2.2921">
        <ele>75.8</ele>
        <time>2012-11-04T10:05:26Z</time>
      </trkpt>
      <trkpt lat="49.83242" lon="2.2923">
        <ele>70.1</ele>
        <time>2012-11-04T10:05:37Z</time>
      </trkpt>
      <trkpt lat="49.83249" lon="2.29248">
        <ele>74.5</ele>
        <time>2012-11-04T10:05:47Z</time>
      </trkpt>
      <trkpt lat="49.83256" lon="2.29267">
        <ele>70.1</ele>
        <time>2012-11-04T10:05:57Z</time>
      </trkpt>
      <trkpt lat="49.83264" lon="2.29285">
        <ele>73.7</ele>
        <time>2012-11-04T10:06:08Z</time>
      </trkpt>
      <trkpt lat="49.83271" lon="2.29303">
        <ele>68.2</ele>
        <time>2012-11-04T10:06:18Z</time>
      </trkpt>
      <trkpt lat="49.83278" lon="2.29322">
        <ele>72.8</ele>
        <time>2012-11-04T10:06:29Z</time>
      </trkpt>
      <trkpt lat="49.83287" lon="2.29341">
        <ele>71</ele>
        <time>2012-11-04T10:06:39Z</time>
      </trkpt>
      <trkpt lat="49.83294" lon="2.29361">
        <ele>68</ele>
        <time>2012-11-04T10:06:49Z</time>
      </trkpt>
      <trkpt lat="49.83302" lon="2.29378">
        <ele>69.3</ele>
        <time>2012-11-04T10:06:58Z</time>
      </trkpt>
      <trkpt lat="49.83309" lon="2.29396">
        <ele>65.5</ele>
        <time>2012-11-04T10:07:08Z</time>
      </trkpt>
      <trkpt lat="49.83315" lon="2.29417">
        <ele>62.2</ele>
        <time>2012-11-04T10:07:21Z</time>
      </trkpt>
      <trkpt lat="49.83322" lon="2.29436">
        <ele>60.3</ele>
        <time>2012-11-04T10:07:32Z</time>
      </trkpt>
      <trkpt lat="49.8333" lon="2.29454">
        <ele>63.8</ele>
        <time>2012-11-04T10:07:44Z</time>
      </trkpt>
      <trkpt lat="49.83338" lon="2.29473">
        <ele>62.4</ele>
        <time>2012-11-04T10:07:56Z</time>
      </trkpt>
      <trkpt lat="49.83343" lon="2.29495">
        <ele>58.6</ele>
        <time>2012-11-04T10:08:09Z</time>
      </trkpt>
      <trkpt lat="49.83348" lon="2.29515">
        <ele>58.7</ele>
        <time>2012-11-04T10:08:22Z</time>
      </trkpt>
      <trkpt lat="49.83352" lon="2.29553">
        <ele>60.7</ele>
        <time>2012-11-04T10:08:40Z</time>
      </trkpt>
      <trkpt lat="49.83352" lon="2.29553">
        <ele>60.7</ele>
        <time>2012-11-04T10:15:25Z</time>
      </trkpt>
      <trkpt lat="49.83351" lon="2.29571">
        <ele>60.3</ele>
        <time>2012-11-04T10:15:38Z</time>
      </trkpt>
      <trkpt lat="49.83338" lon="2.29579">
        <ele>49.4</ele>
        <time>2012-11-04T10:15:48Z</time>
      </trkpt>
      <trkpt lat="49.83325" lon="2.29586">
        <ele>50.2</ele>
        <time>2012-11-04T10:15:58Z</time>
      </trkpt>
      <trkpt lat="49.83313" lon="2.29595">
        <ele>50.8</ele>
        <time>2012-11-04T10:16:06Z</time>
      </trkpt>
      <trkpt lat="49.83298" lon="2.29606">
        <ele>51.8</ele>
        <time>2012-11-04T10:16:19Z</time>
      </trkpt>
      <trkpt lat="49.83285" lon="2.29617">
        <ele>55.7</ele>
        <time>2012-11-04T10:16:30Z</time>
      </trkpt>
      <trkpt lat="49.83272" lon="2.29627">
        <ele>54</ele>
        <time>2012-11-04T10:16:40Z</time>
      </trkpt>
      <trkpt lat="49.83258" lon="2.29634">
        <ele>50.1</ele>
        <time>2012-11-04T10:16:50Z</time>
      </trkpt>
      <trkpt lat="49.83243" lon="2.2964">
        <ele>55</ele>
        <time>2012-11-04T10:17:01Z</time>
      </trkpt>
      <trkpt lat="49.83229" lon="2.29646">
        <ele>58.5</ele>
        <time>2012-11-04T10:17:13Z</time>
      </trkpt>
      <trkpt lat="49.83217" lon="2.29655">
        <ele>55.2</ele>
        <time>2012-11-04T10:17:22Z</time>
      </trkpt>
      <trkpt lat="49.83202" lon="2.2966">
        <ele>59.6</ele>
        <time>2012-11-04T10:17:31Z</time>
      </trkpt>
      <trkpt lat="49.83188" lon="2.29665">
        <ele>53.2</ele>
        <time>2012-11-04T10:17:44Z</time>
      </trkpt>
      <trkpt lat="49.83174" lon="2.29668">
        <ele>51.5</ele>
        <time>2012-11-04T10:17:54Z</time>
      </trkpt>
      <trkpt lat="49.8316" lon="2.29673">
        <ele>51.2</ele>
        <time>2012-11-04T10:18:06Z</time>
      </trkpt>
      <trkpt lat="49.83146" lon="2.29679">
        <ele>53.1</ele>
        <time>2012-11-04T10:18:16Z</time>
      </trkpt>
      <trkpt lat="49.83132" lon="2.29683">
        <ele>53.7</ele>
        <time>2012-11-04T10:18:26Z</time>
      </trkpt>
      <trkpt lat="49.83118" lon="2.29691">
        <ele>54</ele>
        <time>2012-11-04T10:18:37Z</time>
      </trkpt>
      <trkpt lat="49.83104" lon="2.29695">
        <ele>54.3</ele>
        <time>2012-11-04T10:18:48Z</time>
      </trkpt>
      <trkpt lat="49.8309" lon="2.29698">
        <ele>54.7</ele>
        <time>2012-11-04T10:18:59Z</time>
      </trkpt>
      <trkpt lat="49.83076" lon="2.29704">
        <ele>54.9</ele>
        <time>2012-11-04T10:19:09Z</time>
      </trkpt>
      <trkpt lat="49.83062" lon="2.29709">
        <ele>55.3</ele>
        <time>2012-11-04T10:19:20Z</time>
      </trkpt>
      <trkpt lat="49.83049" lon="2.29714">
        <ele>51.6</ele>
        <time>2012-11-04T10:19:31Z</time>
      </trkpt>
      <trkpt lat="49.83038" lon="2.29725">
        <ele>57.1</ele>
        <time>2012-11-04T10:19:39Z</time>
      </trkpt>
      <trkpt lat="49.83024" lon="2.2973">
        <ele>60.7</ele>
        <time>2012-11-04T10:19:49Z</time>
      </trkpt>
      <trkpt lat="49.83011" lon="2.29737">
        <ele>57.2</ele>
        <time>2012-11-04T10:20:00Z</time>
      </trkpt>
      <trkpt lat="49.82997" lon="2.29743">
        <ele>53.6</ele>
        <time>2012-11-04T10:20:11Z</time>
      </trkpt>
      <trkpt lat="49.82984" lon="2.29751">
        <ele>50.3</ele>
        <time>2012-11-04T10:20:23Z</time>
      </trkpt>
      <trkpt lat="49.82972" lon="2.29764">
        <ele>53.9</ele>
        <time>2012-11-04T10:20:35Z</time>
      </trkpt>
      <trkpt lat="49.82957" lon="2.29773">
        <ele>49.4</ele>
        <time>2012-11-04T10:20:47Z</time>
      </trkpt>
      <trkpt lat="49.82944" lon="2.29786">
        <ele>51.6</ele>
        <time>2012-11-04T10:20:57Z</time>
      </trkpt>
      <trkpt lat="49.82931" lon="2.29796">
        <ele>52.2</ele>
        <time>2012-11-04T10:21:08Z</time>
      </trkpt>
      <trkpt lat="49.82917" lon="2.29803">
        <ele>56.6</ele>
        <time>2012-11-04T10:21:20Z</time>
      </trkpt>
      <trkpt lat="49.82901" lon="2.29814">
        <ele>54</ele>
        <time>2012-11-04T10:21:31Z</time>
      </trkpt>
      <trkpt lat="49.8289" lon="2.29826">
        <ele>49.1</ele>
        <time>2012-11-04T10:21:44Z</time>
      </trkpt>
      <trkpt lat="49.82879" lon="2.29841">
        <ele>51.5</ele>
        <time>2012-11-04T10:21:54Z</time>
      </trkpt>
      <trkpt lat="49.8287" lon="2.29858">
        <ele>54.6</ele>
        <time>2012-11-04T10:22:04Z</time>
      </trkpt>
      <trkpt lat="49.82858" lon="2.29872">
        <ele>57.7</ele>
        <time>2012-11-04T10:22:17Z</time>
      </trkpt>
      <trkpt lat="49.82849" lon="2.29891">
        <ele>56</ele>
        <time>2012-11-04T10:22:28Z</time>
      </trkpt>
      <trkpt lat="49.82843" lon="2.29911">
        <ele>54.9</ele>
        <time>2012-11-04T10:22:39Z</time>
      </trkpt>
      <trkpt lat="49.82837" lon="2.29931">
        <ele>51.6</ele>
        <time>2012-11-04T10:22:50Z</time>
      </trkpt>
      <trkpt lat="49.82831" lon="2.29952">
        <ele>51.5</ele>
        <time>2012-11-04T10:23:03Z</time>
      </trkpt>
      <trkpt lat="49.82825" lon="2.29972">
        <ele>53.8</ele>
        <time>2012-11-04T10:23:14Z</time>
      </trkpt>
      <trkpt lat="49.82821" lon="2.29993">
        <ele>54.4</ele>
        <time>2012-11-04T10:23:23Z</time>
      </trkpt>
      <trkpt lat="49.82816" lon="2.30013">
        <ele>53.3</ele>
        <time>2012-11-04T10:23:33Z</time>
      </trkpt>
      <trkpt lat="49.82811" lon="2.30033">
        <ele>52.2</ele>
        <time>2012-11-04T10:23:43Z</time>
      </trkpt>
      <trkpt lat="49.82807" lon="2.30053">
        <ele>50.8</ele>
        <time>2012-11-04T10:23:55Z</time>
      </trkpt>
      <trkpt lat="49.82802" lon="2.30073">
        <ele>55.8</ele>
        <time>2012-11-04T10:24:06Z</time>
      </trkpt>
      <trkpt lat="49.82801" lon="2.30096">
        <ele>60.7</ele>
        <time>2012-11-04T10:24:18Z</time>
      </trkpt>
      <trkpt lat="49.828" lon="2.30118">
        <ele>60</ele>
        <time>2012-11-04T10:24:30Z</time>
      </trkpt>
      <trkpt lat="49.82799" lon="2.30141">
        <ele>59.5</ele>
        <time>2012-11-04T10:24:40Z</time>
      </trkpt>
      <trkpt lat="49.82794" lon="2.30163">
        <ele>58.3</ele>
        <time>2012-11-04T10:24:51Z</time>
      </trkpt>
      <trkpt lat="49.82792" lon="2.30189">
        <ele>63.3</ele>
        <time>2012-11-04T10:25:04Z</time>
      </trkpt>
      <trkpt lat="49.82791" lon="2.30211">
        <ele>63.2</ele>
        <time>2012-11-04T10:25:17Z</time>
      </trkpt>
      <trkpt lat="49.8279" lon="2.30232">
        <ele>62.3</ele>
        <time>2012-11-04T10:25:28Z</time>
      </trkpt>
      <trkpt lat="49.82786" lon="2.30253">
        <ele>53.9</ele>
        <time>2012-11-04T10:25:38Z</time>
      </trkpt>
      <trkpt lat="49.82784" lon="2.30276">
        <ele>49.4</ele>
        <time>2012-11-04T10:25:50Z</time>
      </trkpt>
      <trkpt lat="49.82783" lon="2.30297">
        <ele>43.9</ele>
        <time>2012-11-04T10:26:03Z</time>
      </trkpt>
      <trkpt lat="49.82784" lon="2.30319">
        <ele>43.2</ele>
        <time>2012-11-04T10:26:12Z</time>
      </trkpt>
      <trkpt lat="49.82781" lon="2.3034">
        <ele>38.2</ele>
        <time>2012-11-04T10:26:21Z</time>
      </trkpt>
      <trkpt lat="49.82779" lon="2.30362">
        <ele>38.5</ele>
        <time>2012-11-04T10:26:36Z</time>
      </trkpt>
      <trkpt lat="49.82773" lon="2.30381">
        <ele>42</ele>
        <time>2012-11-04T10:26:45Z</time>
      </trkpt>
      <trkpt lat="49.82764" lon="2.30399">
        <ele>39.3</ele>
        <time>2012-11-04T10:26:55Z</time>
      </trkpt>
      <trkpt lat="49.82756" lon="2.30418">
        <ele>42.9</ele>
        <time>2012-11-04T10:27:04Z</time>
      </trkpt>
      <trkpt lat="49.82746" lon="2.30434">
        <ele>47.4</ele>
        <time>2012-11-04T10:27:13Z</time>
      </trkpt>
      <trkpt lat="49.82736" lon="2.30453">
        <ele>53.2</ele>
        <time>2012-11-04T10:27:24Z</time>
      </trkpt>
      <trkpt lat="49.82727" lon="2.30469">
        <ele>58.5</ele>
        <time>2012-11-04T10:27:34Z</time>
      </trkpt>
      <trkpt lat="49.82731" lon="2.30492">
        <ele>66.2</ele>
        <time>2012-11-04T10:27:49Z</time>
      </trkpt>
      <trkpt lat="49.82742" lon="2.30505">
        <ele>58.6</ele>
        <time>2012-11-04T10:28:02Z</time>
      </trkpt>
      <trkpt lat="49.82751" lon="2.30522">
        <ele>55.4</ele>
        <time>2012-11-04T10:28:13Z</time>
      </trkpt>
      <trkpt lat="49.82759" lon="2.3054">
        <ele>58.5</ele>
        <time>2012-11-04T10:28:23Z</time>
      </trkpt>
      <trkpt lat="49.82768" lon="2.30557">
        <ele>66</ele>
        <time>2012-11-04T10:28:35Z</time>
      </trkpt>
      <trkpt lat="49.82779" lon="2.30572">
        <ele>63.1</ele>
        <time>2012-11-04T10:28:48Z</time>
      </trkpt>
      <trkpt lat="49.82789" lon="2.30589">
        <ele>63.4</ele>
        <time>2012-11-04T10:28:59Z</time>
      </trkpt>
      <trkpt lat="49.82799" lon="2.30606">
        <ele>67.4</ele>
        <time>2012-11-04T10:29:08Z</time>
      </trkpt>
      <trkpt lat="49.82807" lon="2.30623">
        <ele>71.9</ele>
        <time>2012-11-04T10:29:18Z</time>
      </trkpt>
      <trkpt lat="49.82812" lon="2.30646">
        <ele>74.6</ele>
        <time>2012-11-04T10:29:34Z</time>
      </trkpt>
      <trkpt lat="49.82816" lon="2.30667">
        <ele>79.8</ele>
        <time>2012-11-04T10:29:46Z</time>
      </trkpt>
      <trkpt lat="49.82819" lon="2.30688">
        <ele>82.9</ele>
        <time>2012-11-04T10:30:01Z</time>
      </trkpt>
      <trkpt lat="49.82822" lon="2.3071">
        <ele>84.8</ele>
        <time>2012-11-04T10:30:15Z</time>
      </trkpt>
      <trkpt lat="49.82824" lon="2.30732">
        <ele>87.3</ele>
        <time>2012-11-04T10:30:26Z</time>
      </trkpt>
      <trkpt lat="49.82826" lon="2.30752">
        <ele>80.3</ele>
        <time>2012-11-04T10:30:37Z</time>
      </trkpt>
      <trkpt lat="49.82829" lon="2.30774">
        <ele>83.3</ele>
        <time>2012-11-04T10:30:53Z</time>
      </trkpt>
      <trkpt lat="49.82835" lon="2.30796">
        <ele>85.2</ele>
        <time>2012-11-04T10:31:02Z</time>
      </trkpt>
      <trkpt lat="49.8284" lon="2.30818">
        <ele>84.5</ele>
        <time>2012-11-04T10:31:13Z</time>
      </trkpt>
      <trkpt lat="49.82845" lon="2.30843">
        <ele>78.5</ele>
        <time>2012-11-04T10:31:20Z</time>
      </trkpt>
      <trkpt lat="49.82849" lon="2.30864">
        <ele>81.3</ele>
        <time>2012-11-04T10:31:36Z</time>
      </trkpt>
      <trkpt lat="49.82857" lon="2.30882">
        <ele>82.2</ele>
        <time>2012-11-04T10:31:47Z</time>
      </trkpt>
      <trkpt lat="49.82871" lon="2.30882">
        <ele>76.8</ele>
        <time>2012-11-04T10:31:59Z</time>
      </trkpt>
      <trkpt lat="49.82885" lon="2.30883">
        <ele>79</ele>
        <time>2012-11-04T10:32:11Z</time>
      </trkpt>
      <trkpt lat="49.82898" lon="2.30883">
        <ele>75.1</ele>
        <time>2012-11-04T10:32:25Z</time>
      </trkpt>
      <trkpt lat="49.82912" lon="2.3088">
        <ele>76.6</ele>
        <time>2012-11-04T10:32:38Z</time>
      </trkpt>
      <trkpt lat="49.82926" lon="2.30879">
        <ele>80.1</ele>
        <time>2012-11-04T10:32:49Z</time>
      </trkpt>
      <trkpt lat="49.8294" lon="2.30873">
        <ele>84.6</ele>
        <time>2012-11-04T10:32:59Z</time>
      </trkpt>
      <trkpt lat="49.82953" lon="2.30862">
        <ele>88.5</ele>
        <time>2012-11-04T10:33:08Z</time>
      </trkpt>
      <trkpt lat="49.82967" lon="2.30854">
        <ele>93</ele>
        <time>2012-11-04T10:33:24Z</time>
      </trkpt>
      <trkpt lat="49.82979" lon="2.30865">
        <ele>79.1</ele>
        <time>2012-11-04T10:33:44Z</time>
      </trkpt>
      <trkpt lat="49.82993" lon="2.30873">
        <ele>72.4</ele>
        <time>2012-11-04T10:33:58Z</time>
      </trkpt>
      <trkpt lat="49.83005" lon="2.3088">
        <ele>74.8</ele>
        <time>2012-11-04T10:34:06Z</time>
      </trkpt>
      <trkpt lat="49.83019" lon="2.30882">
        <ele>77.5</ele>
        <time>2012-11-04T10:34:12Z</time>
      </trkpt>
      <trkpt lat="49.83034" lon="2.30883">
        <ele>82.1</ele>
        <time>2012-11-04T10:34:22Z</time>
      </trkpt>
      <trkpt lat="49.83048" lon="2.30885">
        <ele>87.2</ele>
        <time>2012-11-04T10:34:33Z</time>
      </trkpt>
      <trkpt lat="49.83065" lon="2.30889">
        <ele>88.8</ele>
        <time>2012-11-04T10:34:47Z</time>
      </trkpt>
      <trkpt lat="49.83078" lon="2.30894">
        <ele>95.1</ele>
        <time>2012-11-04T10:35:01Z</time>
      </trkpt>
      <trkpt lat="49.83092" lon="2.309">
        <ele>97.4</ele>
        <time>2012-11-04T10:35:14Z</time>
      </trkpt>
      <trkpt lat="49.83104" lon="2.30911">
        <ele>97</ele>
        <time>2012-11-04T10:35:26Z</time>
      </trkpt>
      <trkpt lat="49.83114" lon="2.30925">
        <ele>99.8</ele>
        <time>2012-11-04T10:35:35Z</time>
      </trkpt>
      <trkpt lat="49.83123" lon="2.30942">
        <ele>102.4</ele>
        <time>2012-11-04T10:35:45Z</time>
      </trkpt>
      <trkpt lat="49.83136" lon="2.30958">
        <ele>104.8</ele>
        <time>2012-11-04T10:35:57Z</time>
      </trkpt>
      <trkpt lat="49.83146" lon="2.30972">
        <ele>104.2</ele>
        <time>2012-11-04T10:36:10Z</time>
      </trkpt>
      <trkpt lat="49.83158" lon="2.30985">
        <ele>102.6</ele>
        <time>2012-11-04T10:36:22Z</time>
      </trkpt>
      <trkpt lat="49.83169" lon="2.30997">
        <ele>98.9</ele>
        <time>2012-11-04T10:36:34Z</time>
      </trkpt>
      <trkpt lat="49.83179" lon="2.31012">
        <ele>99.5</ele>
        <time>2012-11-04T10:36:47Z</time>
      </trkpt>
      <trkpt lat="49.8319" lon="2.31026">
        <ele>98.6</ele>
        <time>2012-11-04T10:36:58Z</time>
      </trkpt>
      <trkpt lat="49.83201" lon="2.3104">
        <ele>102.6</ele>
        <time>2012-11-04T10:37:12Z</time>
      </trkpt>
      <trkpt lat="49.83213" lon="2.31051">
        <ele>98.3</ele>
        <time>2012-11-04T10:37:22Z</time>
      </trkpt>
      <trkpt lat="49.83224" lon="2.31063">
        <ele>101</ele>
        <time>2012-11-04T10:37:33Z</time>
      </trkpt>
      <trkpt lat="49.83235" lon="2.31076">
        <ele>105.7</ele>
        <time>2012-11-04T10:37:43Z</time>
      </trkpt>
      <trkpt lat="49.83246" lon="2.31089">
        <ele>104.2</ele>
        <time>2012-11-04T10:37:53Z</time>
      </trkpt>
      <trkpt lat="49.83256" lon="2.31104">
        <ele>102.7</ele>
        <time>2012-11-04T10:38:06Z</time>
      </trkpt>
      <trkpt lat="49.83269" lon="2.31117">
        <ele>101.3</ele>
        <time>2012-11-04T10:38:17Z</time>
      </trkpt>
      <trkpt lat="49.83282" lon="2.31127">
        <ele>104.6</ele>
        <time>2012-11-04T10:38:29Z</time>
      </trkpt>
      <trkpt lat="49.83292" lon="2.31143">
        <ele>103.7</ele>
        <time>2012-11-04T10:38:44Z</time>
      </trkpt>
      <trkpt lat="49.83305" lon="2.31157">
        <ele>101.5</ele>
        <time>2012-11-04T10:38:57Z</time>
      </trkpt>
      <trkpt lat="49.83318" lon="2.31169">
        <ele>95.5</ele>
        <time>2012-11-04T10:39:15Z</time>
      </trkpt>
      <trkpt lat="49.83332" lon="2.31176">
        <ele>98.1</ele>
        <time>2012-11-04T10:39:27Z</time>
      </trkpt>
      <trkpt lat="49.83337" lon="2.31182">
        <ele>101.9</ele>
        <time>2012-11-04T10:39:34Z</time>
      </trkpt>
      <trkpt lat="49.83351" lon="2.31188">
        <ele>94.9</ele>
        <time>2012-11-04T10:39:41Z</time>
      </trkpt>
      <trkpt lat="49.83366" lon="2.31189">
        <ele>96.5</ele>
        <time>2012-11-04T10:39:50Z</time>
      </trkpt>
      <trkpt lat="49.83378" lon="2.31198">
        <ele>99</ele>
        <time>2012-11-04T10:40:04Z</time>
      </trkpt>
      <trkpt lat="49.83389" lon="2.31212">
        <ele>96.8</ele>
        <time>2012-11-04T10:40:20Z</time>
      </trkpt>
      <trkpt lat="49.83399" lon="2.31229">
        <ele>100.9</ele>
        <time>2012-11-04T10:40:33Z</time>
      </trkpt>
      <trkpt lat="49.83407" lon="2.31246">
        <ele>102.8</ele>
        <time>2012-11-04T10:40:45Z</time>
      </trkpt>
      <trkpt lat="49.83417" lon="2.31262">
        <ele>98.5</ele>
        <time>2012-11-04T10:40:53Z</time>
      </trkpt>
      <trkpt lat="49.83425" lon="2.31281">
        <ele>99</ele>
        <time>2012-11-04T10:41:07Z</time>
      </trkpt>
      <trkpt lat="49.8343" lon="2.31291">
        <ele>107.3</ele>
        <time>2012-11-04T10:41:15Z</time>
      </trkpt>
      <trkpt lat="49.83443" lon="2.31301">
        <ele>105.9</ele>
        <time>2012-11-04T10:41:25Z</time>
      </trkpt>
      <trkpt lat="49.83453" lon="2.31317">
        <ele>103.8</ele>
        <time>2012-11-04T10:41:36Z</time>
      </trkpt>
      <trkpt lat="49.83464" lon="2.31332">
        <ele>107.3</ele>
        <time>2012-11-04T10:41:48Z</time>
      </trkpt>
      <trkpt lat="49.83475" lon="2.3135">
        <ele>108.3</ele>
        <time>2012-11-04T10:42:01Z</time>
      </trkpt>
      <trkpt lat="49.83487" lon="2.31367">
        <ele>111</ele>
        <time>2012-11-04T10:42:10Z</time>
      </trkpt>
      <trkpt lat="49.83497" lon="2.31383">
        <ele>110.4</ele>
        <time>2012-11-04T10:42:21Z</time>
      </trkpt>
      <trkpt lat="49.83508" lon="2.31398">
        <ele>107</ele>
        <time>2012-11-04T10:42:37Z</time>
      </trkpt>
      <trkpt lat="49.83518" lon="2.31413">
        <ele>102.8</ele>
        <time>2012-11-04T10:42:50Z</time>
      </trkpt>
      <trkpt lat="49.83531" lon="2.31406">
        <ele>103.7</ele>
        <time>2012-11-04T10:42:59Z</time>
      </trkpt>
      <trkpt lat="49.83539" lon="2.31387">
        <ele>106.3</ele>
        <time>2012-11-04T10:43:08Z</time>
      </trkpt>
      <trkpt lat="49.83546" lon="2.31368">
        <ele>105.5</ele>
        <time>2012-11-04T10:43:20Z</time>
      </trkpt>
      <trkpt lat="49.83556" lon="2.31353">
        <ele>102</ele>
        <time>2012-11-04T10:43:33Z</time>
      </trkpt>
      <trkpt lat="49.83567" lon="2.31336">
        <ele>103.3</ele>
        <time>2012-11-04T10:43:43Z</time>
      </trkpt>
      <trkpt lat="49.83577" lon="2.31321">
        <ele>106.2</ele>
        <time>2012-11-04T10:43:56Z</time>
      </trkpt>
      <trkpt lat="49.83588" lon="2.31308">
        <ele>103.8</ele>
        <time>2012-11-04T10:44:08Z</time>
      </trkpt>
      <trkpt lat="49.83592" lon="2.31308">
        <ele>105.8</ele>
        <time>2012-11-04T10:44:10Z</time>
      </trkpt>
      <trkpt lat="49.83606" lon="2.31305">
        <ele>100.3</ele>
        <time>2012-11-04T10:44:30Z</time>
      </trkpt>
      <trkpt lat="49.8362" lon="2.3131">
        <ele>96.3</ele>
        <time>2012-11-04T10:44:40Z</time>
      </trkpt>
      <trkpt lat="49.83634" lon="2.31326">
        <ele>101.9</ele>
        <time>2012-11-04T10:44:51Z</time>
      </trkpt>
      <trkpt lat="49.83646" lon="2.31338">
        <ele>105.6</ele>
        <time>2012-11-04T10:45:01Z</time>
      </trkpt>
      <trkpt lat="49.83647" lon="2.31344">
        <ele>105.7</ele>
        <time>2012-11-04T10:45:20Z</time>
      </trkpt>
      <trkpt lat="49.83659" lon="2.31358">
        <ele>104.1</ele>
        <time>2012-11-04T10:45:36Z</time>
      </trkpt>
      <trkpt lat="49.8367" lon="2.31376">
        <ele>105.3</ele>
        <time>2012-11-04T10:45:51Z</time>
      </trkpt>
      <trkpt lat="49.83681" lon="2.31389">
        <ele>106.3</ele>
        <time>2012-11-04T10:46:05Z</time>
      </trkpt>
      <trkpt lat="49.83691" lon="2.31404">
        <ele>106.2</ele>
        <time>2012-11-04T10:46:21Z</time>
      </trkpt>
      <trkpt lat="49.83701" lon="2.31418">
        <ele>109.9</ele>
        <time>2012-11-04T10:46:34Z</time>
      </trkpt>
      <trkpt lat="49.83707" lon="2.31438">
        <ele>105.6</ele>
        <time>2012-11-04T10:46:50Z</time>
      </trkpt>
      <trkpt lat="49.83712" lon="2.3145">
        <ele>105.8</ele>
        <time>2012-11-04T10:47:00Z</time>
      </trkpt>
    </trkseg>
  </trk>
</gpx>